PWSweather.com
Personal Weather Stations
Station Observations
KNCPINNA2
Pinnacle , Pinnacle, NC 27043

Pinnacle Pinnacle, NC 27043

Lat: 36.352557, Lon: -80.4434349

Elevation: 898

Station Type: Ambient Weather WS-1090

Latest ConditionsUpdated 1:15:01 PM EDT Saturday, Aug 23, 2014
Currently Today's Max Today's Min Today's Average
Temperature 88.5°F31.4°C 88.7°F31.5°C 71.4°F21.9°C 76.5°F24.7°C
Dew Point 83.9°F28.8°C 85.6°F29.8°C 71.2°F21.8°C 76.0°F24.4°C
Winds Calm Calm 48.8 mph W78.5 kmh W - 0.2 mph 0.3 kmh
Wind Gusts 2.2 mph3.5 kmh 3.8 mph6.1 kmh - -
Humidity 86% 99% 86% 98%
Pressure 29.98 in1015.2 mb 30.00 in1015.9 mb 29.95 in1014.2 mb -
Hour Temp Dew Point Humidity Winds Wind Gusts Pressure Precip Precip Rate Daily Precip Total
01:15 PM 88.5°F31.4°C 83.9°F28.8°C 86% Calm Calm 2.2 mph3.5 kmh 29.98 in1015.2 mb 0.00 in0.0 mm 0.00 in/hr0.0 mm/hr 0.38 in9.7 mm
01:14 PM 88.5°F31.4°C 83.9°F28.8°C 86% Calm Calm 2.2 mph3.5 kmh 29.98 in1015.2 mb 0.00 in0.0 mm 0.00 in/hr0.0 mm/hr 0.38 in9.7 mm
01:13 PM 88.5°F31.4°C 83.9°F28.8°C 86% Calm Calm 2.2 mph3.5 kmh 29.98 in1015.2 mb 0.00 in0.0 mm 0.00 in/hr0.0 mm/hr 0.38 in9.7 mm
01:12 PM 88.7°F31.5°C 84.1°F28.9°C 86% Calm Calm 2.2 mph3.5 kmh 29.98 in1015.2 mb 0.00 in0.0 mm 0.00 in/hr0.0 mm/hr 0.38 in9.7 mm
01:11 PM 88.5°F31.4°C 84.2°F29.0°C 87% Calm Calm 2.2 mph3.5 kmh 29.98 in1015.2 mb 0.00 in0.0 mm 0.00 in/hr0.0 mm/hr 0.38 in9.7 mm
01:10 PM 88.5°F31.4°C 84.6°F29.2°C 88% Calm Calm 2.2 mph3.5 kmh 29.98 in1015.2 mb 0.00 in0.0 mm 0.00 in/hr0.0 mm/hr 0.38 in9.7 mm
01:09 PM 88.2°F31.2°C 83.9°F28.8°C 87% Calm Calm 1.6 mph2.6 kmh 29.98 in1015.2 mb 0.00 in0.0 mm 0.00 in/hr0.0 mm/hr 0.38 in9.7 mm
01:08 PM 88.2°F31.2°C 85.0°F29.4°C 90% Calm Calm 3.1 mph5.0 kmh 29.98 in1015.2 mb 0.00 in0.0 mm 0.00 in/hr0.0 mm/hr 0.38 in9.7 mm
01:07 PM 88.2°F31.2°C 85.0°F29.4°C 90% Calm Calm 3.1 mph5.0 kmh 29.98 in1015.2 mb 0.00 in0.0 mm 0.00 in/hr0.0 mm/hr 0.38 in9.7 mm
01:06 PM 87.4°F30.8°C 84.6°F29.2°C 91% Calm Calm 3.1 mph5.0 kmh 29.98 in1015.2 mb 0.00 in0.0 mm 0.00 in/hr0.0 mm/hr 0.38 in9.7 mm
01:05 PM 87.4°F30.8°C 84.6°F29.2°C 91% Calm Calm 3.1 mph5.0 kmh 29.98 in1015.2 mb 0.00 in0.0 mm 0.00 in/hr0.0 mm/hr 0.38 in9.7 mm
01:04 PM 87.4°F30.8°C 84.6°F29.2°C 91% Calm Calm 3.1 mph5.0 kmh 29.98 in1015.2 mb 0.00 in0.0 mm 0.00 in/hr0.0 mm/hr 0.38 in9.7 mm
01:03 PM 87.4°F30.8°C 84.6°F29.2°C 91% Calm Calm 3.1 mph5.0 kmh 29.98 in1015.2 mb 0.00 in0.0 mm 0.00 in/hr0.0 mm/hr 0.38 in9.7 mm
01:02 PM 87.4°F30.8°C 84.6°F29.2°C 91% Calm Calm 3.1 mph5.0 kmh 29.98 in1015.2 mb 0.00 in0.0 mm 0.00 in/hr0.0 mm/hr 0.38 in9.7 mm
01:01 PM 87.4°F30.8°C 84.6°F29.2°C 91% Calm Calm 3.1 mph5.0 kmh 29.99 in1015.6 mb 0.00 in0.0 mm 0.00 in/hr0.0 mm/hr 0.38 in9.7 mm
01:00 PM 87.4°F30.8°C 84.6°F29.2°C 91% Calm Calm 3.1 mph5.0 kmh 29.99 in1015.6 mb 0.00 in0.0 mm 0.00 in/hr0.0 mm/hr 0.38 in9.7 mm
12:59 PM 87.4°F30.8°C 84.6°F29.2°C 91% Calm Calm 3.1 mph5.0 kmh 29.99 in1015.6 mb 0.00 in0.0 mm 0.00 in/hr0.0 mm/hr 0.38 in9.7 mm
12:58 PM 87.3°F30.7°C 84.4°F29.1°C 91% 0.7 mph NW1.1 kmh NW 3.1 mph5.0 kmh 29.99 in1015.6 mb 0.00 in0.0 mm 0.00 in/hr0.0 mm/hr 0.38 in9.7 mm
12:57 PM 87.3°F30.7°C 84.1°F28.9°C 90% Calm Calm 3.1 mph5.0 kmh 29.99 in1015.6 mb 0.00 in0.0 mm 0.00 in/hr0.0 mm/hr 0.38 in9.7 mm
12:56 PM 87.3°F30.7°C 83.7°F28.7°C 89% Calm Calm 3.1 mph5.0 kmh 29.99 in1015.6 mb 0.00 in0.0 mm 0.00 in/hr0.0 mm/hr 0.38 in9.7 mm
12:55 PM 87.4°F30.8°C 83.9°F28.8°C 89% 0.7 mph NW1.1 kmh NW 3.1 mph5.0 kmh 29.98 in1015.2 mb 0.00 in0.0 mm 0.00 in/hr0.0 mm/hr 0.38 in9.7 mm
12:54 PM 87.4°F30.8°C 84.2°F29.0°C 90% 0.7 mph WSW1.1 kmh WSW 3.1 mph5.0 kmh 29.98 in1015.2 mb 0.00 in0.0 mm 0.00 in/hr0.0 mm/hr 0.38 in9.7 mm
12:53 PM 87.6°F30.9°C 84.4°F29.1°C 90% Calm Calm 2.2 mph3.5 kmh 29.99 in1015.6 mb 0.00 in0.0 mm 0.00 in/hr0.0 mm/hr 0.38 in9.7 mm
12:52 PM 87.4°F30.8°C 84.6°F29.2°C 91% Calm Calm 2.2 mph3.5 kmh 29.99 in1015.6 mb 0.00 in0.0 mm 0.00 in/hr0.0 mm/hr 0.38 in9.7 mm
12:51 PM 87.3°F30.7°C 84.7°F29.3°C 92% Calm Calm 2.2 mph3.5 kmh 29.99 in1015.6 mb 0.00 in0.0 mm 0.00 in/hr0.0 mm/hr 0.38 in9.7 mm
12:50 PM 87.3°F30.7°C 84.7°F29.3°C 92% Calm Calm 2.2 mph3.5 kmh 29.99 in1015.6 mb 0.00 in0.0 mm 0.00 in/hr0.0 mm/hr 0.38 in9.7 mm
12:49 PM 87.3°F30.7°C 84.7°F29.3°C 92% Calm Calm 2.2 mph3.5 kmh 29.99 in1015.6 mb 0.00 in0.0 mm 0.00 in/hr0.0 mm/hr 0.38 in9.7 mm
12:48 PM 87.3°F30.7°C 84.7°F29.3°C 92% Calm Calm 2.2 mph3.5 kmh 29.99 in1015.6 mb 0.00 in0.0 mm 0.00 in/hr0.0 mm/hr 0.38 in9.7 mm
12:47 PM 87.1°F30.6°C 84.6°F29.2°C 92% 0.7 mph S1.1 kmh S 2.2 mph3.5 kmh 29.99 in1015.6 mb 0.00 in0.0 mm 0.00 in/hr0.0 mm/hr 0.38 in9.7 mm
12:46 PM 87.3°F30.7°C 85.1°F29.5°C 93% Calm Calm 2.2 mph3.5 kmh 29.99 in1015.6 mb 0.00 in0.0 mm 0.00 in/hr0.0 mm/hr 0.38 in9.7 mm
12:45 PM 87.1°F30.6°C 84.9°F29.4°C 93% 0.7 mph SSE1.1 kmh SSE 2.2 mph3.5 kmh 29.99 in1015.6 mb 0.00 in0.0 mm 0.00 in/hr0.0 mm/hr 0.38 in9.7 mm
12:44 PM 87.1°F30.6°C 84.6°F29.2°C 92% 0.7 mph S1.1 kmh S 2.2 mph3.5 kmh 29.99 in1015.6 mb 0.00 in0.0 mm 0.00 in/hr0.0 mm/hr 0.38 in9.7 mm
12:43 PM 87.1°F30.6°C 84.2°F29.0°C 91% Calm Calm 2.2 mph3.5 kmh 29.99 in1015.6 mb 0.00 in0.0 mm 0.00 in/hr0.0 mm/hr 0.38 in9.7 mm
12:42 PM 87.3°F30.7°C 84.1°F28.9°C 90% Calm Calm 2.2 mph3.5 kmh 29.99 in1015.6 mb 0.00 in0.0 mm 0.00 in/hr0.0 mm/hr 0.38 in9.7 mm
12:41 PM 87.4°F30.8°C 84.9°F29.4°C 92% Calm Calm 2.2 mph3.5 kmh 29.99 in1015.6 mb 0.00 in0.0 mm 0.00 in/hr0.0 mm/hr 0.38 in9.7 mm
12:40 PM 87.6°F30.9°C 84.8°F29.3°C 91% Calm Calm 2.2 mph3.5 kmh 29.99 in1015.6 mb 0.00 in0.0 mm 0.00 in/hr0.0 mm/hr 0.38 in9.7 mm
12:39 PM 87.8°F31.0°C 85.3°F29.6°C 92% Calm Calm 2.2 mph3.5 kmh 30.00 in1015.9 mb 0.00 in0.0 mm 0.00 in/hr0.0 mm/hr 0.38 in9.7 mm
12:38 PM 87.8°F31.0°C 85.3°F29.6°C 92% Calm Calm 2.2 mph3.5 kmh 29.99 in1015.6 mb 0.00 in0.0 mm 0.00 in/hr0.0 mm/hr 0.38 in9.7 mm
12:37 PM 87.8°F31.0°C 85.3°F29.6°C 92% Calm Calm 3.1 mph5.0 kmh 30.00 in1015.9 mb 0.00 in0.0 mm 0.00 in/hr0.0 mm/hr 0.38 in9.7 mm
12:36 PM 87.8°F31.0°C 85.3°F29.6°C 92% Calm Calm 3.1 mph5.0 kmh 30.00 in1015.9 mb 0.00 in0.0 mm 0.00 in/hr0.0 mm/hr 0.38 in9.7 mm
12:35 PM 87.8°F31.0°C 85.3°F29.6°C 92% Calm Calm 3.1 mph5.0 kmh 29.99 in1015.6 mb 0.00 in0.0 mm 0.00 in/hr0.0 mm/hr 0.38 in9.7 mm
12:34 PM 87.6°F30.9°C 85.4°F29.7°C 93% Calm Calm 3.8 mph6.1 kmh 29.99 in1015.6 mb 0.00 in0.0 mm 0.00 in/hr0.0 mm/hr 0.38 in9.7 mm
12:33 PM 87.1°F30.6°C 85.6°F29.8°C 95% 0.7 mph SSW1.1 kmh SSW 3.8 mph6.1 kmh 30.00 in1015.9 mb 0.00 in0.0 mm 0.00 in/hr0.0 mm/hr 0.38 in9.7 mm
12:32 PM 87.1°F30.6°C 85.6°F29.8°C 95% 0.7 mph SSW1.1 kmh SSW 3.8 mph6.1 kmh 30.00 in1015.9 mb 0.00 in0.0 mm 0.00 in/hr0.0 mm/hr 0.38 in9.7 mm
12:31 PM 86.9°F30.5°C 85.4°F29.7°C 95% Calm Calm 3.8 mph6.1 kmh 30.00 in1015.9 mb 0.00 in0.0 mm 0.00 in/hr0.0 mm/hr 0.38 in9.7 mm
12:30 PM 86.7°F30.4°C 85.2°F29.6°C 95% Calm Calm 3.8 mph6.1 kmh 30.00 in1015.9 mb 0.00 in0.0 mm 0.00 in/hr0.0 mm/hr 0.38 in9.7 mm
12:29 PM 86.4°F30.2°C 84.2°F29.0°C 93% Calm Calm 3.8 mph6.1 kmh 30.00 in1015.9 mb 0.00 in0.0 mm 0.00 in/hr0.0 mm/hr 0.38 in9.7 mm
12:28 PM 86.4°F30.2°C 84.5°F29.2°C 94% Calm Calm 3.8 mph6.1 kmh 30.00 in1015.9 mb 0.00 in0.0 mm 0.00 in/hr0.0 mm/hr 0.38 in9.7 mm
12:27 PM 86.4°F30.2°C 84.2°F29.0°C 93% 0.7 mph S1.1 kmh S 3.8 mph6.1 kmh 30.00 in1015.9 mb 0.00 in0.0 mm 0.00 in/hr0.0 mm/hr 0.38 in9.7 mm
12:26 PM 86.4°F30.2°C 84.2°F29.0°C 93% 1.6 mph S2.6 kmh S 3.8 mph6.1 kmh 30.00 in1015.9 mb 0.00 in0.0 mm 0.00 in/hr0.0 mm/hr 0.38 in9.7 mm
12:25 PM 86.4°F30.2°C 83.8°F28.8°C 92% 1.6 mph SSW2.6 kmh SSW 3.8 mph6.1 kmh 30.00 in1015.9 mb 0.00 in0.0 mm 0.00 in/hr0.0 mm/hr 0.38 in9.7 mm
12:24 PM 86.4°F30.2°C 84.5°F29.2°C 94% 0.7 mph S1.1 kmh S 2.2 mph3.5 kmh 30.00 in1015.9 mb 0.00 in0.0 mm 0.00 in/hr0.0 mm/hr 0.38 in9.7 mm
12:23 PM 86.4°F30.2°C 84.5°F29.2°C 94% 0.7 mph S1.1 kmh S 2.2 mph3.5 kmh 30.00 in1015.9 mb 0.00 in0.0 mm 0.00 in/hr0.0 mm/hr 0.38 in9.7 mm
12:22 PM 86.2°F30.1°C 84.3°F29.1°C 94% Calm Calm 2.2 mph3.5 kmh 30.00 in1015.9 mb 0.00 in0.0 mm 0.00 in/hr0.0 mm/hr 0.38 in9.7 mm
12:21 PM 86.2°F30.1°C 83.7°F28.7°C 92% Calm Calm 2.2 mph3.5 kmh 30.00 in1015.9 mb 0.00 in0.0 mm 0.00 in/hr0.0 mm/hr 0.38 in9.7 mm
12:20 PM 86.4°F30.2°C 84.5°F29.2°C 94% Calm Calm 2.2 mph3.5 kmh 30.00 in1015.9 mb 0.00 in0.0 mm 0.00 in/hr0.0 mm/hr 0.38 in9.7 mm
12:19 PM 86.4°F30.2°C 84.9°F29.4°C 95% Calm Calm 2.2 mph3.5 kmh 30.00 in1015.9 mb 0.00 in0.0 mm 0.00 in/hr0.0 mm/hr 0.38 in9.7 mm
12:18 PM 86.2°F30.1°C 84.7°F29.3°C 95% Calm Calm 2.2 mph3.5 kmh 30.00 in1015.9 mb 0.00 in0.0 mm 0.00 in/hr0.0 mm/hr 0.38 in9.7 mm
12:17 PM 86.2°F30.1°C 84.7°F29.3°C 95% Calm Calm 2.2 mph3.5 kmh 30.00 in1015.9 mb 0.00 in0.0 mm 0.00 in/hr0.0 mm/hr 0.38 in9.7 mm
12:16 PM 86.2°F30.1°C 84.7°F29.3°C 95% Calm Calm 2.2 mph3.5 kmh 30.00 in1015.9 mb 0.00 in0.0 mm 0.00 in/hr0.0 mm/hr 0.38 in9.7 mm
12:15 PM 86.0°F30.0°C 85.5°F29.7°C 98% Calm Calm 2.2 mph3.5 kmh 30.00 in1015.9 mb 0.00 in0.0 mm 0.00 in/hr0.0 mm/hr 0.38 in9.7 mm
12:14 PM 86.0°F30.0°C 85.5°F29.7°C 98% Calm Calm 2.2 mph3.5 kmh 30.00 in1015.9 mb 0.00 in0.0 mm 0.00 in/hr0.0 mm/hr 0.38 in9.7 mm
12:13 PM 85.6°F29.8°C 85.1°F29.5°C 98% 0.7 mph W1.1 kmh W 2.2 mph3.5 kmh 30.00 in1015.9 mb 0.00 in0.0 mm 0.00 in/hr0.0 mm/hr 0.38 in9.7 mm
12:12 PM 85.3°F29.6°C 85.1°F29.5°C 99% Calm Calm 1.6 mph2.6 kmh 30.00 in1015.9 mb 0.00 in0.0 mm 0.00 in/hr0.0 mm/hr 0.38 in9.7 mm
12:11 PM 85.1°F29.5°C 84.9°F29.4°C 99% Calm Calm 1.6 mph2.6 kmh 30.00 in1015.9 mb 0.00 in0.0 mm 0.00 in/hr0.0 mm/hr 0.38 in9.7 mm
12:10 PM 84.9°F29.4°C 84.7°F29.3°C 99% Calm Calm 1.6 mph2.6 kmh 30.00 in1015.9 mb 0.00 in0.0 mm 0.00 in/hr0.0 mm/hr 0.38 in9.7 mm
12:09 PM 84.4°F29.1°C 84.2°F29.0°C 99% Calm Calm 1.6 mph2.6 kmh 30.00 in1015.9 mb 0.00 in0.0 mm 0.00 in/hr0.0 mm/hr 0.38 in9.7 mm
12:08 PM 84.0°F28.9°C 83.8°F28.8°C 99% Calm Calm 1.6 mph2.6 kmh 30.00 in1015.9 mb 0.00 in0.0 mm 0.00 in/hr0.0 mm/hr 0.38 in9.7 mm
12:07 PM 84.0°F28.9°C 83.8°F28.8°C 99% Calm Calm 1.6 mph2.6 kmh 30.00 in1015.9 mb 0.00 in0.0 mm 0.00 in/hr0.0 mm/hr 0.38 in9.7 mm
12:06 PM 83.1°F28.4°C 82.9°F28.3°C 99% 0.7 mph NW1.1 kmh NW 1.6 mph2.6 kmh 30.00 in1015.9 mb 0.00 in0.0 mm 0.00 in/hr0.0 mm/hr 0.38 in9.7 mm
12:05 PM 83.1°F28.4°C 82.9°F28.3°C 99% 0.7 mph NW1.1 kmh NW 1.6 mph2.6 kmh 30.00 in1015.9 mb 0.00 in0.0 mm 0.00 in/hr0.0 mm/hr 0.38 in9.7 mm
12:04 PM 83.1°F28.4°C 82.9°F28.3°C 99% 0.7 mph NW1.1 kmh NW 1.6 mph2.6 kmh 30.00 in1015.9 mb 0.00 in0.0 mm 0.00 in/hr0.0 mm/hr 0.38 in9.7 mm
12:03 PM 83.1°F28.4°C 82.9°F28.3°C 99% 0.7 mph NW1.1 kmh NW 1.6 mph2.6 kmh 30.00 in1015.9 mb 0.00 in0.0 mm 0.00 in/hr0.0 mm/hr 0.38 in9.7 mm
12:02 PM 83.1°F28.4°C 82.9°F28.3°C 99% 0.7 mph NW1.1 kmh NW 1.6 mph2.6 kmh 30.00 in1015.9 mb 0.00 in0.0 mm 0.00 in/hr0.0 mm/hr 0.38 in9.7 mm
12:01 PM 83.1°F28.4°C 82.9°F28.3°C 99% 0.7 mph NW1.1 kmh NW 1.6 mph2.6 kmh 30.00 in1015.9 mb 0.00 in0.0 mm 0.00 in/hr0.0 mm/hr 0.38 in9.7 mm
12:00 PM 83.1°F28.4°C 82.9°F28.3°C 99% 0.7 mph WNW1.1 kmh WNW 2.2 mph3.5 kmh 30.00 in1015.9 mb 0.00 in0.0 mm 0.00 in/hr0.0 mm/hr 0.38 in9.7 mm
11:59 AM 83.1°F28.4°C 82.9°F28.3°C 99% 0.7 mph WNW1.1 kmh WNW 2.2 mph3.5 kmh 30.00 in1015.9 mb 0.00 in0.0 mm 0.00 in/hr0.0 mm/hr 0.38 in9.7 mm
11:58 AM 83.1°F28.4°C 82.9°F28.3°C 99% 0.7 mph WNW1.1 kmh WNW 2.2 mph3.5 kmh 30.00 in1015.9 mb 0.00 in0.0 mm 0.00 in/hr0.0 mm/hr 0.38 in9.7 mm
11:57 AM 82.9°F28.3°C 82.7°F28.2°C 99% Calm Calm 2.2 mph3.5 kmh 30.00 in1015.9 mb 0.00 in0.0 mm 0.00 in/hr0.0 mm/hr 0.38 in9.7 mm
11:56 AM 82.8°F28.2°C 82.5°F28.1°C 99% Calm Calm 2.2 mph3.5 kmh 30.00 in1015.9 mb 0.00 in0.0 mm 0.00 in/hr0.0 mm/hr 0.38 in9.7 mm
11:55 AM 82.8°F28.2°C 82.5°F28.1°C 99% Calm Calm 2.2 mph3.5 kmh 30.00 in1015.9 mb 0.00 in0.0 mm 0.00 in/hr0.0 mm/hr 0.38 in9.7 mm
11:54 AM 82.8°F28.2°C 82.5°F28.1°C 99% Calm Calm 2.2 mph3.5 kmh 30.00 in1015.9 mb 0.00 in0.0 mm 0.00 in/hr0.0 mm/hr 0.38 in9.7 mm
11:53 AM 82.8°F28.2°C 82.5°F28.1°C 99% Calm Calm 2.2 mph3.5 kmh 30.00 in1015.9 mb 0.00 in0.0 mm 0.00 in/hr0.0 mm/hr 0.38 in9.7 mm
11:52 AM 82.8°F28.2°C 82.5°F28.1°C 99% Calm Calm 2.2 mph3.5 kmh 30.00 in1015.9 mb 0.00 in0.0 mm 0.00 in/hr0.0 mm/hr 0.38 in9.7 mm
11:51 AM 82.9°F28.3°C 82.7°F28.2°C 99% Calm Calm 2.2 mph3.5 kmh 30.00 in1015.9 mb 0.00 in0.0 mm 0.00 in/hr0.0 mm/hr 0.38 in9.7 mm
11:50 AM 83.1°F28.4°C 82.6°F28.1°C 98% Calm Calm 2.2 mph3.5 kmh 30.00 in1015.9 mb 0.00 in0.0 mm 0.00 in/hr0.0 mm/hr 0.38 in9.7 mm
11:49 AM 83.1°F28.4°C 82.9°F28.3°C 99% Calm Calm 2.2 mph3.5 kmh 30.00 in1015.9 mb 0.00 in0.0 mm 0.00 in/hr0.0 mm/hr 0.38 in9.7 mm
11:48 AM 83.1°F28.4°C 82.9°F28.3°C 99% Calm Calm 1.6 mph2.6 kmh 30.00 in1015.9 mb 0.00 in0.0 mm 0.00 in/hr0.0 mm/hr 0.38 in9.7 mm
11:47 AM 83.1°F28.4°C 82.9°F28.3°C 99% Calm Calm 1.6 mph2.6 kmh 30.00 in1015.9 mb 0.00 in0.0 mm 0.00 in/hr0.0 mm/hr 0.38 in9.7 mm
11:46 AM 83.3°F28.5°C 83.1°F28.4°C 99% Calm Calm 1.6 mph2.6 kmh 30.00 in1015.9 mb 0.00 in0.0 mm 0.00 in/hr0.0 mm/hr 0.38 in9.7 mm
11:45 AM 83.3°F28.5°C 83.1°F28.4°C 99% Calm Calm 1.6 mph2.6 kmh 30.00 in1015.9 mb 0.00 in0.0 mm 0.00 in/hr0.0 mm/hr 0.38 in9.7 mm
11:44 AM 83.1°F28.4°C 82.9°F28.3°C 99% Calm Calm 1.6 mph2.6 kmh 30.00 in1015.9 mb 0.00 in0.0 mm 0.00 in/hr0.0 mm/hr 0.38 in9.7 mm
11:43 AM 83.1°F28.4°C 82.9°F28.3°C 99% Calm Calm 1.6 mph2.6 kmh 30.00 in1015.9 mb 0.00 in0.0 mm 0.00 in/hr0.0 mm/hr 0.38 in9.7 mm
11:42 AM 83.1°F28.4°C 82.9°F28.3°C 99% Calm Calm 3.1 mph5.0 kmh 30.00 in1015.9 mb 0.00 in0.0 mm 0.00 in/hr0.0 mm/hr 0.38 in9.7 mm
11:41 AM 83.1°F28.4°C 82.9°F28.3°C 99% Calm Calm 3.1 mph5.0 kmh 30.00 in1015.9 mb 0.00 in0.0 mm 0.00 in/hr0.0 mm/hr 0.38 in9.7 mm
11:40 AM 83.1°F28.4°C 82.9°F28.3°C 99% Calm Calm 3.1 mph5.0 kmh 30.00 in1015.9 mb 0.00 in0.0 mm 0.00 in/hr0.0 mm/hr 0.38 in9.7 mm
11:39 AM 82.9°F28.3°C 82.7°F28.2°C 99% Calm Calm 3.1 mph5.0 kmh 30.00 in1015.9 mb 0.00 in0.0 mm 0.00 in/hr0.0 mm/hr 0.38 in9.7 mm
11:38 AM 82.9°F28.3°C 82.7°F28.2°C 99% Calm Calm 3.1 mph5.0 kmh 30.00 in1015.9 mb 0.00 in0.0 mm 0.00 in/hr0.0 mm/hr 0.38 in9.7 mm
11:37 AM 82.6°F28.1°C 82.4°F28.0°C 99% Calm Calm 3.1 mph5.0 kmh 30.00 in1015.9 mb 0.00 in0.0 mm 0.00 in/hr0.0 mm/hr 0.38 in9.7 mm
11:36 AM 82.6°F28.1°C 82.4°F28.0°C 99% Calm Calm 3.1 mph5.0 kmh 30.00 in1015.9 mb 0.00 in0.0 mm 0.00 in/hr0.0 mm/hr 0.38 in9.7 mm
11:35 AM 82.6°F28.1°C 82.4°F28.0°C 99% Calm Calm 3.1 mph5.0 kmh 30.00 in1015.9 mb 0.00 in0.0 mm 0.00 in/hr0.0 mm/hr 0.38 in9.7 mm
11:34 AM 82.4°F28.0°C 82.2°F27.9°C 99% Calm Calm 3.1 mph5.0 kmh 30.00 in1015.9 mb 0.00 in0.0 mm 0.00 in/hr0.0 mm/hr 0.38 in9.7 mm
11:33 AM 82.4°F28.0°C 82.2°F27.9°C 99% Calm Calm 3.1 mph5.0 kmh 30.00 in1015.9 mb 0.00 in0.0 mm 0.00 in/hr0.0 mm/hr 0.38 in9.7 mm
11:32 AM 82.2°F27.9°C 82.0°F27.8°C 99% 1.6 mph WSW2.6 kmh WSW 3.1 mph5.0 kmh 30.00 in1015.9 mb 0.00 in0.0 mm 0.00 in/hr0.0 mm/hr 0.38 in9.7 mm
11:31 AM 82.2°F27.9°C 82.0°F27.8°C 99% Calm Calm 1.6 mph2.6 kmh 30.00 in1015.9 mb 0.00 in0.0 mm 0.00 in/hr0.0 mm/hr 0.38 in9.7 mm
11:30 AM 82.2°F27.9°C 82.0°F27.8°C 99% Calm Calm 1.6 mph2.6 kmh 30.00 in1015.9 mb 0.00 in0.0 mm 0.00 in/hr0.0 mm/hr 0.38 in9.7 mm
11:29 AM 82.2°F27.9°C 82.0°F27.8°C 99% Calm Calm 1.6 mph2.6 kmh 30.00 in1015.9 mb 0.00 in0.0 mm 0.00 in/hr0.0 mm/hr 0.38 in9.7 mm
11:28 AM 82.2°F27.9°C 82.0°F27.8°C 99% Calm Calm 1.6 mph2.6 kmh 30.00 in1015.9 mb 0.00 in0.0 mm 0.00 in/hr0.0 mm/hr 0.38 in9.7 mm
11:27 AM 82.2°F27.9°C 82.0°F27.8°C 99% Calm Calm 2.2 mph3.5 kmh 30.00 in1015.9 mb 0.00 in0.0 mm 0.00 in/hr0.0 mm/hr 0.38 in9.7 mm
11:26 AM 82.2°F27.9°C 82.0°F27.8°C 99% 0.7 mph SSW1.1 kmh SSW 2.2 mph3.5 kmh 30.00 in1015.9 mb 0.00 in0.0 mm 0.00 in/hr0.0 mm/hr 0.38 in9.7 mm
11:25 AM 82.0°F27.8°C 81.8°F27.7°C 99% Calm Calm 2.2 mph3.5 kmh 30.00 in1015.9 mb 0.00 in0.0 mm 0.00 in/hr0.0 mm/hr 0.38 in9.7 mm
11:24 AM 82.0°F27.8°C 81.8°F27.7°C 99% Calm Calm 2.2 mph3.5 kmh 30.00 in1015.9 mb 0.00 in0.0 mm 0.00 in/hr0.0 mm/hr 0.38 in9.7 mm
11:23 AM 81.9°F27.7°C 81.6°F27.6°C 99% Calm Calm 2.2 mph3.5 kmh 30.00 in1015.9 mb 0.00 in0.0 mm 0.00 in/hr0.0 mm/hr 0.38 in9.7 mm
11:22 AM 81.9°F27.7°C 81.6°F27.6°C 99% Calm Calm 2.2 mph3.5 kmh 30.00 in1015.9 mb 0.00 in0.0 mm 0.00 in/hr0.0 mm/hr 0.38 in9.7 mm
11:21 AM 81.7°F27.6°C 81.5°F27.5°C 99% Calm Calm 2.2 mph3.5 kmh 30.00 in1015.9 mb 0.00 in0.0 mm 0.00 in/hr0.0 mm/hr 0.38 in9.7 mm
11:20 AM 81.5°F27.5°C 81.3°F27.4°C 99% Calm Calm 2.2 mph3.5 kmh 30.00 in1015.9 mb 0.00 in0.0 mm 0.00 in/hr0.0 mm/hr 0.38 in9.7 mm
11:19 AM 81.5°F27.5°C 81.3°F27.4°C 99% Calm Calm 2.2 mph3.5 kmh 30.00 in1015.9 mb 0.00 in0.0 mm 0.00 in/hr0.0 mm/hr 0.38 in9.7 mm
11:18 AM 81.3°F27.4°C 81.1°F27.3°C 99% Calm Calm 2.2 mph3.5 kmh 30.00 in1015.9 mb 0.00 in0.0 mm 0.00 in/hr0.0 mm/hr 0.38 in9.7 mm
11:17 AM 81.1°F27.3°C 80.9°F27.2°C 99% Calm Calm 1.6 mph2.6 kmh 30.00 in1015.9 mb 0.00 in0.0 mm 0.00 in/hr0.0 mm/hr 0.38 in9.7 mm
11:16 AM 81.1°F27.3°C 80.9°F27.2°C 99% Calm Calm 1.6 mph2.6 kmh 30.00 in1015.9 mb 0.00 in0.0 mm 0.00 in/hr0.0 mm/hr 0.38 in9.7 mm
11:15 AM 81.1°F27.3°C 80.9°F27.2°C 99% Calm Calm 1.6 mph2.6 kmh 30.00 in1015.9 mb 0.00 in0.0 mm 0.00 in/hr0.0 mm/hr 0.38 in9.7 mm
11:14 AM 81.0°F27.2°C 80.7°F27.1°C 99% Calm Calm 1.6 mph2.6 kmh 30.00 in1015.9 mb 0.00 in0.0 mm 0.00 in/hr0.0 mm/hr 0.38 in9.7 mm
11:13 AM 80.8°F27.1°C 80.5°F26.9°C 99% Calm Calm 1.6 mph2.6 kmh 30.00 in1015.9 mb 0.00 in0.0 mm 0.00 in/hr0.0 mm/hr 0.38 in9.7 mm
11:12 AM 80.8°F27.1°C 80.5°F26.9°C 99% Calm Calm 1.6 mph2.6 kmh 30.00 in1015.9 mb 0.00 in0.0 mm 0.00 in/hr0.0 mm/hr 0.38 in9.7 mm
11:11 AM 80.8°F27.1°C 80.5°F26.9°C 99% Calm Calm 1.6 mph2.6 kmh 30.00 in1015.9 mb 0.00 in0.0 mm 0.00 in/hr0.0 mm/hr 0.38 in9.7 mm
11:10 AM 80.6°F27.0°C 80.4°F26.9°C 99% Calm Calm 1.6 mph2.6 kmh 30.00 in1015.9 mb 0.00 in0.0 mm 0.00 in/hr0.0 mm/hr 0.38 in9.7 mm
11:09 AM 80.6°F27.0°C 80.4°F26.9°C 99% Calm Calm 1.6 mph2.6 kmh 30.00 in1015.9 mb 0.00 in0.0 mm 0.00 in/hr0.0 mm/hr 0.38 in9.7 mm
11:08 AM 80.4°F26.9°C 80.2°F26.8°C 99% Calm Calm 1.6 mph2.6 kmh 30.00 in1015.9 mb 0.00 in0.0 mm 0.00 in/hr0.0 mm/hr 0.38 in9.7 mm
11:07 AM 79.9°F26.6°C 79.6°F26.4°C 99% Calm Calm 0.7 mph1.1 kmh 30.00 in1015.9 mb 0.00 in0.0 mm 0.00 in/hr0.0 mm/hr 0.38 in9.7 mm
11:06 AM 79.9°F26.6°C 79.6°F26.4°C 99% Calm Calm 0.7 mph1.1 kmh 30.00 in1015.9 mb 0.00 in0.0 mm 0.00 in/hr0.0 mm/hr 0.38 in9.7 mm
11:05 AM 79.9°F26.6°C 79.6°F26.4°C 99% Calm Calm 0.7 mph1.1 kmh 30.00 in1015.9 mb 0.00 in0.0 mm 0.00 in/hr0.0 mm/hr 0.38 in9.7 mm
11:04 AM 79.9°F26.6°C 79.6°F26.4°C 99% Calm Calm 0.7 mph1.1 kmh 30.00 in1015.9 mb 0.00 in0.0 mm 0.00 in/hr0.0 mm/hr 0.38 in9.7 mm
11:03 AM 79.9°F26.6°C 79.6°F26.4°C 99% Calm Calm 0.7 mph1.1 kmh 30.00 in1015.9 mb 0.00 in0.0 mm 0.00 in/hr0.0 mm/hr 0.38 in9.7 mm
11:02 AM 79.9°F26.6°C 79.6°F26.4°C 99% Calm Calm 0.7 mph1.1 kmh 30.00 in1015.9 mb 0.00 in0.0 mm 0.00 in/hr0.0 mm/hr 0.38 in9.7 mm
11:01 AM 79.9°F26.6°C 79.6°F26.4°C 99% Calm Calm 0.7 mph1.1 kmh 30.00 in1015.9 mb 0.00 in0.0 mm 0.00 in/hr0.0 mm/hr 0.38 in9.7 mm
11:00 AM 79.9°F26.6°C 79.6°F26.4°C 99% Calm Calm 0.7 mph1.1 kmh 30.00 in1015.9 mb 0.00 in0.0 mm 0.00 in/hr0.0 mm/hr 0.38 in9.7 mm
10:59 AM 79.9°F26.6°C 79.6°F26.4°C 99% Calm Calm 0.7 mph1.1 kmh 30.00 in1015.9 mb 0.00 in0.0 mm 0.00 in/hr0.0 mm/hr 0.38 in9.7 mm
10:58 AM 79.9°F26.6°C 79.6°F26.4°C 99% Calm Calm 0.7 mph1.1 kmh 30.00 in1015.9 mb 0.00 in0.0 mm 0.00 in/hr0.0 mm/hr 0.38 in9.7 mm
10:57 AM 79.9°F26.6°C 79.6°F26.4°C 99% Calm Calm 0.7 mph1.1 kmh 30.00 in1015.9 mb 0.00 in0.0 mm 0.00 in/hr0.0 mm/hr 0.38 in9.7 mm
10:56 AM 79.9°F26.6°C 79.6°F26.4°C 99% Calm Calm 0.7 mph1.1 kmh 30.00 in1015.9 mb 0.00 in0.0 mm 0.00 in/hr0.0 mm/hr 0.38 in9.7 mm
10:55 AM 79.9°F26.6°C 79.6°F26.4°C 99% Calm Calm 0.7 mph1.1 kmh 30.00 in1015.9 mb 0.00 in0.0 mm 0.00 in/hr0.0 mm/hr 0.38 in9.7 mm
10:54 AM 80.1°F26.7°C 79.8°F26.6°C 99% Calm Calm 0.7 mph1.1 kmh 30.00 in1015.9 mb 0.00 in0.0 mm 0.00 in/hr0.0 mm/hr 0.38 in9.7 mm
10:53 AM 80.1°F26.7°C 79.8°F26.6°C 99% Calm Calm 0.7 mph1.1 kmh 30.00 in1015.9 mb 0.00 in0.0 mm 0.00 in/hr0.0 mm/hr 0.38 in9.7 mm
10:52 AM 80.1°F26.7°C 79.8°F26.6°C 99% Calm Calm -- 30.00 in1015.9 mb 0.00 in0.0 mm 0.00 in/hr0.0 mm/hr 0.38 in9.7 mm
10:51 AM 80.1°F26.7°C 79.8°F26.6°C 99% Calm Calm 1.6 mph2.6 kmh 30.00 in1015.9 mb 0.00 in0.0 mm 0.00 in/hr0.0 mm/hr 0.38 in9.7 mm
10:50 AM 80.2°F26.8°C 80.0°F26.7°C 99% Calm Calm 1.6 mph2.6 kmh 30.00 in1015.9 mb 0.00 in0.0 mm 0.00 in/hr0.0 mm/hr 0.38 in9.7 mm
10:49 AM 80.2°F26.8°C 80.0°F26.7°C 99% Calm Calm 1.6 mph2.6 kmh 30.00 in1015.9 mb 0.00 in0.0 mm 0.00 in/hr0.0 mm/hr 0.38 in9.7 mm
10:48 AM 80.2°F26.8°C 80.0°F26.7°C 99% Calm Calm 1.6 mph2.6 kmh 30.00 in1015.9 mb 0.00 in0.0 mm 0.00 in/hr0.0 mm/hr 0.38 in9.7 mm
10:47 AM 80.2°F26.8°C 80.0°F26.7°C 99% Calm Calm 1.6 mph2.6 kmh 30.00 in1015.9 mb 0.00 in0.0 mm 0.00 in/hr0.0 mm/hr 0.38 in9.7 mm
10:46 AM 80.2°F26.8°C 80.0°F26.7°C 99% Calm Calm 1.6 mph2.6 kmh 30.00 in1015.9 mb 0.00 in0.0 mm 0.00 in/hr0.0 mm/hr 0.38 in9.7 mm
10:45 AM 80.2°F26.8°C 80.0°F26.7°C 99% Calm Calm 1.6 mph2.6 kmh 30.00 in1015.9 mb 0.00 in0.0 mm 0.00 in/hr0.0 mm/hr 0.38 in9.7 mm
10:44 AM 80.2°F26.8°C 80.0°F26.7°C 99% Calm Calm 1.6 mph2.6 kmh 30.00 in1015.9 mb 0.00 in0.0 mm 0.00 in/hr0.0 mm/hr 0.38 in9.7 mm
10:43 AM 80.2°F26.8°C 80.0°F26.7°C 99% Calm Calm 1.6 mph2.6 kmh 30.00 in1015.9 mb 0.00 in0.0 mm 0.00 in/hr0.0 mm/hr 0.38 in9.7 mm
10:42 AM 80.2°F26.8°C 80.0°F26.7°C 99% Calm Calm 1.6 mph2.6 kmh 30.00 in1015.9 mb 0.00 in0.0 mm 0.00 in/hr0.0 mm/hr 0.38 in9.7 mm
10:41 AM 80.2°F26.8°C 80.0°F26.7°C 99% Calm Calm 1.6 mph2.6 kmh 30.00 in1015.9 mb 0.00 in0.0 mm 0.00 in/hr0.0 mm/hr 0.38 in9.7 mm
10:40 AM 80.2°F26.8°C 80.0°F26.7°C 99% Calm Calm 0.7 mph1.1 kmh 30.00 in1015.9 mb 0.00 in0.0 mm 0.00 in/hr0.0 mm/hr 0.38 in9.7 mm
10:39 AM 80.2°F26.8°C 80.0°F26.7°C 99% Calm Calm 0.7 mph1.1 kmh 30.00 in1015.9 mb 0.00 in0.0 mm 0.00 in/hr0.0 mm/hr 0.38 in9.7 mm
10:38 AM 80.1°F26.7°C 79.8°F26.6°C 99% Calm Calm 0.7 mph1.1 kmh 30.00 in1015.9 mb 0.00 in0.0 mm 0.00 in/hr0.0 mm/hr 0.38 in9.7 mm
10:37 AM 80.1°F26.7°C 79.8°F26.6°C 99% Calm Calm 0.7 mph1.1 kmh 30.00 in1015.9 mb 0.00 in0.0 mm 0.00 in/hr0.0 mm/hr 0.38 in9.7 mm
10:36 AM 80.1°F26.7°C 79.8°F26.6°C 99% Calm Calm 0.7 mph1.1 kmh 30.00 in1015.9 mb 0.00 in0.0 mm 0.00 in/hr0.0 mm/hr 0.38 in9.7 mm
10:35 AM 80.1°F26.7°C 79.8°F26.6°C 99% Calm Calm 0.7 mph1.1 kmh 30.00 in1015.9 mb 0.00 in0.0 mm 0.00 in/hr0.0 mm/hr 0.38 in9.7 mm
10:34 AM 80.1°F26.7°C 79.8°F26.6°C 99% Calm Calm 0.7 mph1.1 kmh 30.00 in1015.9 mb 0.00 in0.0 mm 0.00 in/hr0.0 mm/hr 0.38 in9.7 mm
10:33 AM 79.9°F26.6°C 79.6°F26.4°C 99% Calm Calm 0.7 mph1.1 kmh 30.00 in1015.9 mb 0.00 in0.0 mm 0.00 in/hr0.0 mm/hr 0.38 in9.7 mm
10:32 AM 79.9°F26.6°C 79.6°F26.4°C 99% Calm Calm -- 30.00 in1015.9 mb 0.00 in0.0 mm 0.00 in/hr0.0 mm/hr 0.38 in9.7 mm
10:31 AM 79.9°F26.6°C 79.6°F26.4°C 99% Calm Calm -- 30.00 in1015.9 mb 0.00 in0.0 mm 0.00 in/hr0.0 mm/hr 0.38 in9.7 mm
10:30 AM 79.9°F26.6°C 79.6°F26.4°C 99% Calm Calm -- 30.00 in1015.9 mb 0.00 in0.0 mm 0.00 in/hr0.0 mm/hr 0.38 in9.7 mm
10:29 AM 79.9°F26.6°C 79.6°F26.4°C 99% Calm Calm -- 30.00 in1015.9 mb 0.00 in0.0 mm 0.00 in/hr0.0 mm/hr 0.38 in9.7 mm
10:28 AM 79.9°F26.6°C 79.6°F26.4°C 99% Calm Calm -- 30.00 in1015.9 mb 0.00 in0.0 mm 0.00 in/hr0.0 mm/hr 0.38 in9.7 mm
10:27 AM 79.9°F26.6°C 79.6°F26.4°C 99% Calm Calm -- 30.00 in1015.9 mb 0.00 in0.0 mm 0.00 in/hr0.0 mm/hr 0.38 in9.7 mm
10:26 AM 79.9°F26.6°C 79.6°F26.4°C 99% Calm Calm -- 30.00 in1015.9 mb 0.00 in0.0 mm 0.00 in/hr0.0 mm/hr 0.38 in9.7 mm
10:25 AM 79.7°F26.5°C 79.5°F26.4°C 99% Calm Calm -- 30.00 in1015.9 mb 0.00 in0.0 mm 0.00 in/hr0.0 mm/hr 0.38 in9.7 mm
10:24 AM 79.7°F26.5°C 79.5°F26.4°C 99% Calm Calm 0.7 mph1.1 kmh 30.00 in1015.9 mb 0.00 in0.0 mm 0.00 in/hr0.0 mm/hr 0.38 in9.7 mm
10:23 AM 79.7°F26.5°C 79.5°F26.4°C 99% Calm Calm 0.7 mph1.1 kmh 30.00 in1015.9 mb 0.00 in0.0 mm 0.00 in/hr0.0 mm/hr 0.38 in9.7 mm
10:22 AM 79.7°F26.5°C 79.5°F26.4°C 99% Calm Calm 1.6 mph2.6 kmh 30.00 in1015.9 mb 0.00 in0.0 mm 0.00 in/hr0.0 mm/hr 0.38 in9.7 mm
10:21 AM 79.5°F26.4°C 79.3°F26.3°C 99% Calm Calm 1.6 mph2.6 kmh 30.00 in1015.9 mb 0.00 in0.0 mm 0.00 in/hr0.0 mm/hr 0.38 in9.7 mm
10:20 AM 79.5°F26.4°C 79.3°F26.3°C 99% Calm Calm 1.6 mph2.6 kmh 30.00 in1015.9 mb 0.00 in0.0 mm 0.00 in/hr0.0 mm/hr 0.38 in9.7 mm
10:19 AM 79.5°F26.4°C 79.3°F26.3°C 99% Calm Calm 1.6 mph2.6 kmh 30.00 in1015.9 mb 0.00 in0.0 mm 0.00 in/hr0.0 mm/hr 0.38 in9.7 mm
10:18 AM 79.3°F26.3°C 79.1°F26.2°C 99% Calm Calm 1.6 mph2.6 kmh 30.00 in1015.9 mb 0.00 in0.0 mm 0.00 in/hr0.0 mm/hr 0.38 in9.7 mm
10:17 AM 79.3°F26.3°C 79.1°F26.2°C 99% Calm Calm 1.6 mph2.6 kmh 30.00 in1015.9 mb 0.00 in0.0 mm 0.00 in/hr0.0 mm/hr 0.38 in9.7 mm
10:16 AM 79.3°F26.3°C 79.1°F26.2°C 99% Calm Calm 1.6 mph2.6 kmh 30.00 in1015.9 mb 0.00 in0.0 mm 0.00 in/hr0.0 mm/hr 0.38 in9.7 mm
10:15 AM 79.3°F26.3°C 79.1°F26.2°C 99% Calm Calm 1.6 mph2.6 kmh 30.00 in1015.9 mb 0.00 in0.0 mm 0.00 in/hr0.0 mm/hr 0.38 in9.7 mm
10:14 AM 79.2°F26.2°C 78.9°F26.1°C 99% Calm Calm 1.6 mph2.6 kmh 30.00 in1015.9 mb 0.00 in0.0 mm 0.00 in/hr0.0 mm/hr 0.38 in9.7 mm
10:13 AM 79.2°F26.2°C 78.9°F26.1°C 99% Calm Calm 1.6 mph2.6 kmh 30.00 in1015.9 mb 0.00 in0.0 mm 0.00 in/hr0.0 mm/hr 0.38 in9.7 mm
10:12 AM 79.2°F26.2°C 78.9°F26.1°C 99% Calm Calm 1.6 mph2.6 kmh 30.00 in1015.9 mb 0.00 in0.0 mm 0.00 in/hr0.0 mm/hr 0.38 in9.7 mm
10:11 AM 79.2°F26.2°C 78.9°F26.1°C 99% Calm Calm -- 30.00 in1015.9 mb 0.00 in0.0 mm 0.00 in/hr0.0 mm/hr 0.38 in9.7 mm
10:10 AM 79.0°F26.1°C 78.7°F25.9°C 99% Calm Calm -- 30.00 in1015.9 mb 0.00 in0.0 mm 0.00 in/hr0.0 mm/hr 0.38 in9.7 mm
10:09 AM 79.0°F26.1°C 78.7°F25.9°C 99% Calm Calm -- 30.00 in1015.9 mb 0.00 in0.0 mm 0.00 in/hr0.0 mm/hr 0.38 in9.7 mm
10:08 AM 79.0°F26.1°C 78.7°F25.9°C 99% Calm Calm -- 29.99 in1015.6 mb 0.00 in0.0 mm 0.00 in/hr0.0 mm/hr 0.38 in9.7 mm
10:07 AM 78.8°F26.0°C 78.6°F25.9°C 99% Calm Calm -- 30.00 in1015.9 mb 0.00 in0.0 mm 0.00 in/hr0.0 mm/hr 0.38 in9.7 mm
10:06 AM 78.8°F26.0°C 78.6°F25.9°C 99% Calm Calm -- 30.00 in1015.9 mb 0.00 in0.0 mm 0.00 in/hr0.0 mm/hr 0.38 in9.7 mm
10:05 AM 78.6°F25.9°C 78.4°F25.8°C 99% Calm Calm 0.7 mph1.1 kmh 30.00 in1015.9 mb 0.00 in0.0 mm 0.00 in/hr0.0 mm/hr 0.38 in9.7 mm
10:04 AM 78.4°F25.8°C 78.2°F25.7°C 99% Calm Calm 0.7 mph1.1 kmh 30.00 in1015.9 mb 0.00 in0.0 mm 0.00 in/hr0.0 mm/hr 0.38 in9.7 mm
10:03 AM 78.4°F25.8°C 78.2°F25.7°C 99% Calm Calm 0.7 mph1.1 kmh 30.00 in1015.9 mb 0.00 in0.0 mm 0.00 in/hr0.0 mm/hr 0.38 in9.7 mm
10:02 AM 78.4°F25.8°C 78.2°F25.7°C 99% Calm Calm 2.2 mph3.5 kmh 30.00 in1015.9 mb 0.00 in0.0 mm 0.00 in/hr0.0 mm/hr 0.38 in9.7 mm
10:01 AM 78.4°F25.8°C 78.2°F25.7°C 99% Calm Calm 2.2 mph3.5 kmh 29.99 in1015.6 mb 0.00 in0.0 mm 0.00 in/hr0.0 mm/hr 0.38 in9.7 mm
10:00 AM 78.4°F25.8°C 78.2°F25.7°C 99% Calm Calm 2.2 mph3.5 kmh 30.00 in1015.9 mb 0.00 in0.0 mm 0.00 in/hr0.0 mm/hr 0.38 in9.7 mm
09:59 AM 78.4°F25.8°C 78.2°F25.7°C 99% Calm Calm 2.2 mph3.5 kmh 30.00 in1015.9 mb 0.00 in0.0 mm 0.00 in/hr0.0 mm/hr 0.38 in9.7 mm
09:58 AM 78.4°F25.8°C 78.2°F25.7°C 99% Calm Calm 2.2 mph3.5 kmh 30.00 in1015.9 mb 0.00 in0.0 mm 0.00 in/hr0.0 mm/hr 0.38 in9.7 mm
09:57 AM 78.4°F25.8°C 78.2°F25.7°C 99% Calm Calm 2.2 mph3.5 kmh 30.00 in1015.9 mb 0.00 in0.0 mm 0.00 in/hr0.0 mm/hr 0.38 in9.7 mm
09:56 AM 78.4°F25.8°C 78.2°F25.7°C 99% Calm Calm 2.2 mph3.5 kmh 30.00 in1015.9 mb 0.00 in0.0 mm 0.00 in/hr0.0 mm/hr 0.38 in9.7 mm
09:55 AM 78.4°F25.8°C 78.2°F25.7°C 99% Calm Calm 2.2 mph3.5 kmh 30.00 in1015.9 mb 0.00 in0.0 mm 0.00 in/hr0.0 mm/hr 0.38 in9.7 mm
09:54 AM 78.4°F25.8°C 78.2°F25.7°C 99% Calm Calm 2.2 mph3.5 kmh 30.00 in1015.9 mb 0.00 in0.0 mm 0.00 in/hr0.0 mm/hr 0.38 in9.7 mm
09:53 AM 78.3°F25.7°C 78.0°F25.6°C 99% Calm Calm 2.2 mph3.5 kmh 30.00 in1015.9 mb 0.00 in0.0 mm 0.00 in/hr0.0 mm/hr 0.38 in9.7 mm
09:52 AM 78.3°F25.7°C 78.0°F25.6°C 99% Calm Calm 2.2 mph3.5 kmh 30.00 in1015.9 mb 0.00 in0.0 mm 0.00 in/hr0.0 mm/hr 0.38 in9.7 mm
09:51 AM 78.3°F25.7°C 78.0°F25.6°C 99% Calm Calm 2.2 mph3.5 kmh 30.00 in1015.9 mb 0.00 in0.0 mm 0.00 in/hr0.0 mm/hr 0.38 in9.7 mm
09:50 AM 78.3°F25.7°C 78.0°F25.6°C 99% Calm Calm 2.2 mph3.5 kmh 30.00 in1015.9 mb 0.00 in0.0 mm 0.00 in/hr0.0 mm/hr 0.38 in9.7 mm
09:49 AM 78.3°F25.7°C 78.0°F25.6°C 99% Calm Calm 2.2 mph3.5 kmh 30.00 in1015.9 mb 0.00 in0.0 mm 0.00 in/hr0.0 mm/hr 0.38 in9.7 mm
09:48 AM 78.3°F25.7°C 78.0°F25.6°C 99% 0.7 mph WNW1.1 kmh WNW 2.2 mph3.5 kmh 30.00 in1015.9 mb 0.00 in0.0 mm 0.00 in/hr0.0 mm/hr 0.38 in9.7 mm
09:47 AM 78.3°F25.7°C 78.0°F25.6°C 99% Calm Calm 2.2 mph3.5 kmh 30.00 in1015.9 mb 0.00 in0.0 mm 0.00 in/hr0.0 mm/hr 0.38 in9.7 mm
09:46 AM 78.4°F25.8°C 78.2°F25.7°C 99% Calm Calm 2.2 mph3.5 kmh 30.00 in1015.9 mb 0.00 in0.0 mm 0.00 in/hr0.0 mm/hr 0.38 in9.7 mm
09:45 AM 78.3°F25.7°C 78.0°F25.6°C 99% Calm Calm 2.2 mph3.5 kmh 30.00 in1015.9 mb 0.00 in0.0 mm 0.00 in/hr0.0 mm/hr 0.38 in9.7 mm
09:44 AM 78.3°F25.7°C 78.0°F25.6°C 99% Calm Calm 2.2 mph3.5 kmh 30.00 in1015.9 mb 0.00 in0.0 mm 0.00 in/hr0.0 mm/hr 0.38 in9.7 mm
09:43 AM 78.3°F25.7°C 78.0°F25.6°C 99% Calm Calm 1.6 mph2.6 kmh 30.00 in1015.9 mb 0.00 in0.0 mm 0.00 in/hr0.0 mm/hr 0.38 in9.7 mm
09:42 AM 78.3°F25.7°C 78.0°F25.6°C 99% Calm Calm 1.6 mph2.6 kmh 30.00 in1015.9 mb 0.00 in0.0 mm 0.00 in/hr0.0 mm/hr 0.38 in9.7 mm
09:41 AM 78.3°F25.7°C 78.0°F25.6°C 99% Calm Calm 1.6 mph2.6 kmh 29.99 in1015.6 mb 0.00 in0.0 mm 0.00 in/hr0.0 mm/hr 0.38 in9.7 mm
09:40 AM 78.3°F25.7°C 78.0°F25.6°C 99% Calm Calm 1.6 mph2.6 kmh 30.00 in1015.9 mb 0.00 in0.0 mm 0.00 in/hr0.0 mm/hr 0.38 in9.7 mm
09:39 AM 78.3°F25.7°C 78.0°F25.6°C 99% Calm Calm 1.6 mph2.6 kmh 30.00 in1015.9 mb 0.00 in0.0 mm 0.00 in/hr0.0 mm/hr 0.38 in9.7 mm
09:38 AM 78.3°F25.7°C 78.0°F25.6°C 99% Calm Calm 1.6 mph2.6 kmh 30.00 in1015.9 mb 0.00 in0.0 mm 0.00 in/hr0.0 mm/hr 0.38 in9.7 mm
09:37 AM 78.3°F25.7°C 78.0°F25.6°C 99% Calm Calm -- 30.00 in1015.9 mb 0.00 in0.0 mm 0.00 in/hr0.0 mm/hr 0.38 in9.7 mm
09:36 AM 78.3°F25.7°C 78.0°F25.6°C 99% Calm Calm -- 30.00 in1015.9 mb 0.00 in0.0 mm 0.00 in/hr0.0 mm/hr 0.38 in9.7 mm
09:35 AM 78.1°F25.6°C 77.8°F25.4°C 99% Calm Calm -- 30.00 in1015.9 mb 0.00 in0.0 mm 0.00 in/hr0.0 mm/hr 0.38 in9.7 mm
09:34 AM 78.1°F25.6°C 77.8°F25.4°C 99% Calm Calm -- 29.99 in1015.6 mb 0.00 in0.0 mm 0.00 in/hr0.0 mm/hr 0.38 in9.7 mm
09:33 AM 77.9°F25.5°C 77.7°F25.4°C 99% Calm Calm -- 30.00 in1015.9 mb 0.00 in0.0 mm 0.00 in/hr0.0 mm/hr 0.38 in9.7 mm
09:32 AM 77.9°F25.5°C 77.7°F25.4°C 99% Calm Calm 1.6 mph2.6 kmh 29.99 in1015.6 mb 0.00 in0.0 mm 0.00 in/hr0.0 mm/hr 0.38 in9.7 mm
09:31 AM 77.9°F25.5°C 77.7°F25.4°C 99% Calm Calm 1.6 mph2.6 kmh 30.00 in1015.9 mb 0.00 in0.0 mm 0.00 in/hr0.0 mm/hr 0.38 in9.7 mm
09:30 AM 77.9°F25.5°C 77.7°F25.4°C 99% Calm Calm 3.1 mph5.0 kmh 30.00 in1015.9 mb 0.00 in0.0 mm 0.00 in/hr0.0 mm/hr 0.38 in9.7 mm
09:29 AM 77.9°F25.5°C 77.7°F25.4°C 99% Calm Calm 3.1 mph5.0 kmh 30.00 in1015.9 mb 0.00 in0.0 mm 0.00 in/hr0.0 mm/hr 0.38 in9.7 mm
09:28 AM 77.9°F25.5°C 77.7°F25.4°C 99% Calm Calm 3.1 mph5.0 kmh 30.00 in1015.9 mb 0.00 in0.0 mm 0.00 in/hr0.0 mm/hr 0.38 in9.7 mm
09:27 AM 77.9°F25.5°C 77.7°F25.4°C 99% Calm Calm 3.1 mph5.0 kmh 30.00 in1015.9 mb 0.00 in0.0 mm 0.00 in/hr0.0 mm/hr 0.38 in9.7 mm
09:26 AM 77.9°F25.5°C 77.7°F25.4°C 99% Calm Calm 3.1 mph5.0 kmh 30.00 in1015.9 mb 0.38 in9.7 mm 0.00 in/hr0.0 mm/hr 0.38 in9.7 mm
09:25 AM 77.9°F25.5°C 77.7°F25.4°C 99% 48.8 mph W78.5 kmh W 3.1 mph5.0 kmh 30.00 in1015.9 mb 0.38 in9.7 mm 22.80 in/hr579.1 mm/hr 0.38 in9.7 mm
09:24 AM 77.9°F25.5°C 77.7°F25.4°C 99% 48.8 mph W78.5 kmh W 3.1 mph5.0 kmh 30.00 in1015.9 mb 0.00 in0.0 mm 0.00 in/hr0.0 mm/hr 0.00 in0.0 mm
09:23 AM 77.9°F25.5°C 77.7°F25.4°C 99% Calm Calm 3.1 mph5.0 kmh 30.00 in1015.9 mb 0.00 in0.0 mm 0.00 in/hr0.0 mm/hr 0.00 in0.0 mm
09:22 AM 77.9°F25.5°C 77.7°F25.4°C 99% Calm Calm 3.1 mph5.0 kmh 29.99 in1015.6 mb 0.00 in0.0 mm 0.00 in/hr0.0 mm/hr 0.00 in0.0 mm
09:21 AM 77.9°F25.5°C 77.7°F25.4°C 99% 0.7 mph WNW1.1 kmh WNW 3.1 mph5.0 kmh 29.99 in1015.6 mb 0.00 in0.0 mm 0.00 in/hr0.0 mm/hr 0.00 in0.0 mm
09:20 AM 77.7°F25.4°C 77.5°F25.3°C 99% Calm Calm 1.6 mph2.6 kmh 30.00 in1015.9 mb 0.00 in0.0 mm 0.00 in/hr0.0 mm/hr 0.00 in0.0 mm
09:19 AM 77.7°F25.4°C 77.5°F25.3°C 99% Calm Calm 1.6 mph2.6 kmh 29.99 in1015.6 mb 0.00 in0.0 mm 0.00 in/hr0.0 mm/hr 0.00 in0.0 mm
09:18 AM 77.7°F25.4°C 77.5°F25.3°C 99% Calm Calm 1.6 mph2.6 kmh 30.00 in1015.9 mb 0.00 in0.0 mm 0.00 in/hr0.0 mm/hr 0.00 in0.0 mm
09:17 AM 77.9°F25.5°C 77.7°F25.4°C 99% Calm Calm 1.6 mph2.6 kmh 29.99 in1015.6 mb 0.00 in0.0 mm 0.00 in/hr0.0 mm/hr 0.00 in0.0 mm
09:16 AM 77.9°F25.5°C 77.7°F25.4°C 99% Calm Calm 1.6 mph2.6 kmh 30.00 in1015.9 mb 0.00 in0.0 mm 0.00 in/hr0.0 mm/hr 0.00 in0.0 mm
09:15 AM 77.9°F25.5°C 77.7°F25.4°C 99% Calm Calm 1.6 mph2.6 kmh 30.00 in1015.9 mb 0.00 in0.0 mm 0.00 in/hr0.0 mm/hr 0.00 in0.0 mm
09:14 AM 77.9°F25.5°C 77.7°F25.4°C 99% Calm Calm 1.6 mph2.6 kmh 29.99 in1015.6 mb 0.00 in0.0 mm 0.00 in/hr0.0 mm/hr 0.00 in0.0 mm
09:13 AM 77.9°F25.5°C 77.7°F25.4°C 99% Calm Calm 1.6 mph2.6 kmh 29.99 in1015.6 mb 0.00 in0.0 mm 0.00 in/hr0.0 mm/hr 0.00 in0.0 mm
09:12 AM 77.9°F25.5°C 77.7°F25.4°C 99% Calm Calm 1.6 mph2.6 kmh 29.99 in1015.6 mb 0.00 in0.0 mm 0.00 in/hr0.0 mm/hr 0.00 in0.0 mm
09:11 AM 77.9°F25.5°C 77.7°F25.4°C 99% Calm Calm 1.6 mph2.6 kmh 29.99 in1015.6 mb 0.00 in0.0 mm 0.00 in/hr0.0 mm/hr 0.00 in0.0 mm
09:10 AM 77.9°F25.5°C 77.7°F25.4°C 99% Calm Calm 1.6 mph2.6 kmh 30.00 in1015.9 mb 0.00 in0.0 mm 0.00 in/hr0.0 mm/hr 0.00 in0.0 mm
09:09 AM 77.9°F25.5°C 77.7°F25.4°C 99% Calm Calm 1.6 mph2.6 kmh 29.99 in1015.6 mb 0.00 in0.0 mm 0.00 in/hr0.0 mm/hr 0.00 in0.0 mm
09:08 AM 77.9°F25.5°C 77.7°F25.4°C 99% Calm Calm 0.7 mph1.1 kmh 29.99 in1015.6 mb 0.00 in0.0 mm 0.00 in/hr0.0 mm/hr 0.00 in0.0 mm
09:07 AM 77.9°F25.5°C 77.7°F25.4°C 99% Calm Calm 0.7 mph1.1 kmh 30.00 in1015.9 mb 0.00 in0.0 mm 0.00 in/hr0.0 mm/hr 0.00 in0.0 mm
09:06 AM 78.1°F25.6°C 77.8°F25.4°C 99% Calm Calm 1.6 mph2.6 kmh 30.00 in1015.9 mb 0.00 in0.0 mm 0.00 in/hr0.0 mm/hr 0.00 in0.0 mm
09:05 AM 78.1°F25.6°C 77.8°F25.4°C 99% Calm Calm 1.6 mph2.6 kmh 30.00 in1015.9 mb 0.00 in0.0 mm 0.00 in/hr0.0 mm/hr 0.00 in0.0 mm
09:04 AM 78.1°F25.6°C 77.8°F25.4°C 99% Calm Calm 1.6 mph2.6 kmh 29.99 in1015.6 mb 0.00 in0.0 mm 0.00 in/hr0.0 mm/hr 0.00 in0.0 mm
09:03 AM 78.1°F25.6°C 77.8°F25.4°C 99% Calm Calm 1.6 mph2.6 kmh 29.99 in1015.6 mb 0.00 in0.0 mm 0.00 in/hr0.0 mm/hr 0.00 in0.0 mm
09:02 AM 78.1°F25.6°C 77.8°F25.4°C 99% Calm Calm 1.6 mph2.6 kmh 30.00 in1015.9 mb 0.00 in0.0 mm 0.00 in/hr0.0 mm/hr 0.00 in0.0 mm
09:01 AM 78.1°F25.6°C 77.8°F25.4°C 99% Calm Calm 1.6 mph2.6 kmh 29.99 in1015.6 mb 0.00 in0.0 mm 0.00 in/hr0.0 mm/hr 0.00 in0.0 mm
09:00 AM 78.1°F25.6°C 77.8°F25.4°C 99% Calm Calm 1.6 mph2.6 kmh 30.00 in1015.9 mb 0.00 in0.0 mm 0.00 in/hr0.0 mm/hr 0.00 in0.0 mm
08:59 AM 78.1°F25.6°C 77.8°F25.4°C 99% Calm Calm 1.6 mph2.6 kmh 29.99 in1015.6 mb 0.00 in0.0 mm 0.00 in/hr0.0 mm/hr 0.00 in0.0 mm
08:58 AM 77.9°F25.5°C 77.7°F25.4°C 99% Calm Calm 1.6 mph2.6 kmh 29.99 in1015.6 mb 0.00 in0.0 mm 0.00 in/hr0.0 mm/hr 0.00 in0.0 mm
08:57 AM 77.9°F25.5°C 77.7°F25.4°C 99% Calm Calm 1.6 mph2.6 kmh 29.99 in1015.6 mb 0.00 in0.0 mm 0.00 in/hr0.0 mm/hr 0.00 in0.0 mm
08:56 AM 77.9°F25.5°C 77.7°F25.4°C 99% Calm Calm 1.6 mph2.6 kmh 30.00 in1015.9 mb 0.00 in0.0 mm 0.00 in/hr0.0 mm/hr 0.00 in0.0 mm
08:55 AM 77.9°F25.5°C 77.7°F25.4°C 99% Calm Calm 1.6 mph2.6 kmh 29.99 in1015.6 mb 0.00 in0.0 mm 0.00 in/hr0.0 mm/hr 0.00 in0.0 mm
08:54 AM 77.9°F25.5°C 77.7°F25.4°C 99% Calm Calm 1.6 mph2.6 kmh 29.99 in1015.6 mb 0.00 in0.0 mm 0.00 in/hr0.0 mm/hr 0.00 in0.0 mm
08:53 AM 77.7°F25.4°C 77.5°F25.3°C 99% Calm Calm 2.2 mph3.5 kmh 30.00 in1015.9 mb 0.00 in0.0 mm 0.00 in/hr0.0 mm/hr 0.00 in0.0 mm
08:52 AM 77.7°F25.4°C 77.5°F25.3°C 99% Calm Calm 2.2 mph3.5 kmh 29.99 in1015.6 mb 0.00 in0.0 mm 0.00 in/hr0.0 mm/hr 0.00 in0.0 mm
08:51 AM 77.5°F25.3°C 77.3°F25.2°C 99% Calm Calm 2.2 mph3.5 kmh 29.99 in1015.6 mb 0.00 in0.0 mm 0.00 in/hr0.0 mm/hr 0.00 in0.0 mm
08:50 AM 77.5°F25.3°C 77.3°F25.2°C 99% Calm Calm 2.2 mph3.5 kmh 29.99 in1015.6 mb 0.00 in0.0 mm 0.00 in/hr0.0 mm/hr 0.00 in0.0 mm
08:49 AM 77.4°F25.2°C 77.1°F25.1°C 99% Calm Calm 2.2 mph3.5 kmh 30.00 in1015.9 mb 0.00 in0.0 mm 0.00 in/hr0.0 mm/hr 0.00 in0.0 mm
08:48 AM 77.4°F25.2°C 77.1°F25.1°C 99% Calm Calm 2.2 mph3.5 kmh 29.99 in1015.6 mb 0.00 in0.0 mm 0.00 in/hr0.0 mm/hr 0.00 in0.0 mm
08:47 AM 77.4°F25.2°C 77.1°F25.1°C 99% Calm Calm 2.2 mph3.5 kmh 29.99 in1015.6 mb 0.00 in0.0 mm 0.00 in/hr0.0 mm/hr 0.00 in0.0 mm
08:46 AM 77.2°F25.1°C 76.9°F24.9°C 99% Calm Calm 2.2 mph3.5 kmh 29.99 in1015.6 mb 0.00 in0.0 mm 0.00 in/hr0.0 mm/hr 0.00 in0.0 mm
08:45 AM 77.2°F25.1°C 76.9°F24.9°C 99% Calm Calm 2.2 mph3.5 kmh 29.98 in1015.2 mb 0.00 in0.0 mm 0.00 in/hr0.0 mm/hr 0.00 in0.0 mm
08:44 AM 77.2°F25.1°C 76.9°F24.9°C 99% Calm Calm 2.2 mph3.5 kmh 29.98 in1015.2 mb 0.00 in0.0 mm 0.00 in/hr0.0 mm/hr 0.00 in0.0 mm
08:43 AM 77.0°F25.0°C 76.8°F24.9°C 99% Calm Calm 2.2 mph3.5 kmh 29.99 in1015.6 mb 0.00 in0.0 mm 0.00 in/hr0.0 mm/hr 0.00 in0.0 mm
08:42 AM 77.0°F25.0°C 76.8°F24.9°C 99% Calm Calm 1.6 mph2.6 kmh 29.98 in1015.2 mb 0.00 in0.0 mm 0.00 in/hr0.0 mm/hr 0.00 in0.0 mm
08:41 AM 77.0°F25.0°C 76.8°F24.9°C 99% Calm Calm 1.6 mph2.6 kmh 29.99 in1015.6 mb 0.00 in0.0 mm 0.00 in/hr0.0 mm/hr 0.00 in0.0 mm
08:40 AM 76.8°F24.9°C 76.6°F24.8°C 99% Calm Calm 1.6 mph2.6 kmh 29.99 in1015.6 mb 0.00 in0.0 mm 0.00 in/hr0.0 mm/hr 0.00 in0.0 mm
08:39 AM 76.8°F24.9°C 76.6°F24.8°C 99% Calm Calm 1.6 mph2.6 kmh 29.99 in1015.6 mb 0.00 in0.0 mm 0.00 in/hr0.0 mm/hr 0.00 in0.0 mm
08:38 AM 76.8°F24.9°C 76.6°F24.8°C 99% Calm Calm 1.6 mph2.6 kmh 29.99 in1015.6 mb 0.00 in0.0 mm 0.00 in/hr0.0 mm/hr 0.00 in0.0 mm
08:37 AM 76.6°F24.8°C 76.4°F24.7°C 99% Calm Calm 0.7 mph1.1 kmh 29.99 in1015.6 mb 0.00 in0.0 mm 0.00 in/hr0.0 mm/hr 0.00 in0.0 mm
08:36 AM 76.6°F24.8°C 76.4°F24.7°C 99% Calm Calm 0.7 mph1.1 kmh 29.99 in1015.6 mb 0.00 in0.0 mm 0.00 in/hr0.0 mm/hr 0.00 in0.0 mm
08:35 AM 76.6°F24.8°C 76.4°F24.7°C 99% Calm Calm -- 29.99 in1015.6 mb 0.00 in0.0 mm 0.00 in/hr0.0 mm/hr 0.00 in0.0 mm
08:34 AM 76.6°F24.8°C 76.4°F24.7°C 99% Calm Calm -- 29.98 in1015.2 mb 0.00 in0.0 mm 0.00 in/hr0.0 mm/hr 0.00 in0.0 mm
08:33 AM 76.6°F24.8°C 76.4°F24.7°C 99% Calm Calm 0.7 mph1.1 kmh 29.99 in1015.6 mb 0.00 in0.0 mm 0.00 in/hr0.0 mm/hr 0.00 in0.0 mm
08:32 AM 76.6°F24.8°C 76.4°F24.7°C 99% Calm Calm 0.7 mph1.1 kmh 29.99 in1015.6 mb 0.00 in0.0 mm 0.00 in/hr0.0 mm/hr 0.00 in0.0 mm
08:31 AM 76.5°F24.7°C 76.2°F24.6°C 99% Calm Calm 0.7 mph1.1 kmh 29.99 in1015.6 mb 0.00 in0.0 mm 0.00 in/hr0.0 mm/hr 0.00 in0.0 mm
08:30 AM 76.6°F24.8°C 76.4°F24.7°C 99% Calm Calm 0.7 mph1.1 kmh 29.99 in1015.6 mb 0.00 in0.0 mm 0.00 in/hr0.0 mm/hr 0.00 in0.0 mm
08:29 AM 76.5°F24.7°C 76.2°F24.6°C 99% Calm Calm 0.7 mph1.1 kmh 29.99 in1015.6 mb 0.00 in0.0 mm 0.00 in/hr0.0 mm/hr 0.00 in0.0 mm
08:28 AM 76.6°F24.8°C 76.4°F24.7°C 99% Calm Calm 0.7 mph1.1 kmh 29.99 in1015.6 mb 0.00 in0.0 mm 0.00 in/hr0.0 mm/hr 0.00 in0.0 mm
08:27 AM 76.5°F24.7°C 76.2°F24.6°C 99% Calm Calm 0.7 mph1.1 kmh 29.99 in1015.6 mb 0.00 in0.0 mm 0.00 in/hr0.0 mm/hr 0.00 in0.0 mm
08:26 AM 76.5°F24.7°C 76.2°F24.6°C 99% Calm Calm 0.7 mph1.1 kmh 29.99 in1015.6 mb 0.00 in0.0 mm 0.00 in/hr0.0 mm/hr 0.00 in0.0 mm
08:25 AM 76.5°F24.7°C 76.2°F24.6°C 99% Calm Calm 0.7 mph1.1 kmh 29.99 in1015.6 mb 0.00 in0.0 mm 0.00 in/hr0.0 mm/hr 0.00 in0.0 mm
08:24 AM 76.5°F24.7°C 76.2°F24.6°C 99% Calm Calm 0.7 mph1.1 kmh 29.99 in1015.6 mb 0.00 in0.0 mm 0.00 in/hr0.0 mm/hr 0.00 in0.0 mm
08:23 AM 76.5°F24.7°C 76.2°F24.6°C 99% Calm Calm 0.7 mph1.1 kmh 29.99 in1015.6 mb 0.00 in0.0 mm 0.00 in/hr0.0 mm/hr 0.00 in0.0 mm
08:22 AM 76.5°F24.7°C 76.2°F24.6°C 99% Calm Calm -- 29.98 in1015.2 mb 0.00 in0.0 mm 0.00 in/hr0.0 mm/hr 0.00 in0.0 mm
08:21 AM 76.3°F24.6°C 76.0°F24.4°C 99% Calm Calm -- 29.99 in1015.6 mb 0.00 in0.0 mm 0.00 in/hr0.0 mm/hr 0.00 in0.0 mm
08:20 AM 76.3°F24.6°C 76.0°F24.4°C 99% Calm Calm -- 29.99 in1015.6 mb 0.00 in0.0 mm 0.00 in/hr0.0 mm/hr 0.00 in0.0 mm
08:19 AM 76.3°F24.6°C 76.0°F24.4°C 99% Calm Calm -- 29.99 in1015.6 mb 0.00 in0.0 mm 0.00 in/hr0.0 mm/hr 0.00 in0.0 mm
08:18 AM 76.3°F24.6°C 76.0°F24.4°C 99% Calm Calm -- 29.99 in1015.6 mb 0.00 in0.0 mm 0.00 in/hr0.0 mm/hr 0.00 in0.0 mm
08:17 AM 76.1°F24.5°C 75.9°F24.4°C 99% Calm Calm -- 29.99 in1015.6 mb 0.00 in0.0 mm 0.00 in/hr0.0 mm/hr 0.00 in0.0 mm
08:16 AM 75.9°F24.4°C 75.7°F24.3°C 99% Calm Calm -- 29.99 in1015.6 mb 0.00 in0.0 mm 0.00 in/hr0.0 mm/hr 0.00 in0.0 mm
08:15 AM 75.9°F24.4°C 75.7°F24.3°C 99% Calm Calm -- 29.99 in1015.6 mb 0.00 in0.0 mm 0.00 in/hr0.0 mm/hr 0.00 in0.0 mm
08:14 AM 75.9°F24.4°C 75.7°F24.3°C 99% Calm Calm -- 29.99 in1015.6 mb 0.00 in0.0 mm 0.00 in/hr0.0 mm/hr 0.00 in0.0 mm
08:13 AM 76.3°F24.6°C 76.0°F24.4°C 99% Calm Calm -- 29.99 in1015.6 mb 0.00 in0.0 mm 0.00 in/hr0.0 mm/hr 0.00 in0.0 mm
08:12 AM 75.7°F24.3°C 75.5°F24.2°C 99% Calm Calm -- 29.99 in1015.6 mb 0.00 in0.0 mm 0.00 in/hr0.0 mm/hr 0.00 in0.0 mm
08:11 AM 76.3°F24.6°C 76.0°F24.4°C 99% Calm Calm -- 29.99 in1015.6 mb 0.00 in0.0 mm 0.00 in/hr0.0 mm/hr 0.00 in0.0 mm
08:10 AM 75.6°F24.2°C 75.3°F24.1°C 99% Calm Calm -- 29.99 in1015.6 mb 0.00 in0.0 mm 0.00 in/hr0.0 mm/hr 0.00 in0.0 mm
08:09 AM 75.6°F24.2°C 75.3°F24.1°C 99% Calm Calm -- 29.99 in1015.6 mb 0.00 in0.0 mm 0.00 in/hr0.0 mm/hr 0.00 in0.0 mm
08:08 AM 75.4°F24.1°C 75.1°F23.9°C 99% Calm Calm -- 29.99 in1015.6 mb 0.00 in0.0 mm 0.00 in/hr0.0 mm/hr 0.00 in0.0 mm
08:07 AM 75.4°F24.1°C 75.1°F23.9°C 99% Calm Calm -- 29.99 in1015.6 mb 0.00 in0.0 mm 0.00 in/hr0.0 mm/hr 0.00 in0.0 mm
08:06 AM 74.8°F23.8°C 74.6°F23.7°C 99% Calm Calm -- 29.99 in1015.6 mb 0.00 in0.0 mm 0.00 in/hr0.0 mm/hr 0.00 in0.0 mm
08:05 AM 74.8°F23.8°C 74.6°F23.7°C 99% Calm Calm -- 29.99 in1015.6 mb 0.00 in0.0 mm 0.00 in/hr0.0 mm/hr 0.00 in0.0 mm
08:04 AM 74.8°F23.8°C 74.6°F23.7°C 99% Calm Calm -- 29.98 in1015.2 mb 0.00 in0.0 mm 0.00 in/hr0.0 mm/hr 0.00 in0.0 mm
08:03 AM 74.8°F23.8°C 74.6°F23.7°C 99% Calm Calm -- 29.98 in1015.2 mb 0.00 in0.0 mm 0.00 in/hr0.0 mm/hr 0.00 in0.0 mm
08:02 AM 74.8°F23.8°C 74.6°F23.7°C 99% Calm Calm -- 29.98 in1015.2 mb 0.00 in0.0 mm 0.00 in/hr0.0 mm/hr 0.00 in0.0 mm
08:01 AM 74.8°F23.8°C 74.6°F23.7°C 99% Calm Calm -- 29.98 in1015.2 mb 0.00 in0.0 mm 0.00 in/hr0.0 mm/hr 0.00 in0.0 mm
08:00 AM 74.8°F23.8°C 74.6°F23.7°C 99% Calm Calm -- 29.98 in1015.2 mb 0.00 in0.0 mm 0.00 in/hr0.0 mm/hr 0.00 in0.0 mm
07:59 AM 74.8°F23.8°C 74.6°F23.7°C 99% Calm Calm -- 29.99 in1015.6 mb 0.00 in0.0 mm 0.00 in/hr0.0 mm/hr 0.00 in0.0 mm
07:58 AM 74.8°F23.8°C 74.6°F23.7°C 99% Calm Calm -- 29.98 in1015.2 mb 0.00 in0.0 mm 0.00 in/hr0.0 mm/hr 0.00 in0.0 mm
07:57 AM 74.7°F23.7°C 74.4°F23.6°C 99% Calm Calm -- 29.99 in1015.6 mb 0.00 in0.0 mm 0.00 in/hr0.0 mm/hr 0.00 in0.0 mm
07:56 AM 74.7°F23.7°C 74.4°F23.6°C 99% Calm Calm -- 29.99 in1015.6 mb 0.00 in0.0 mm 0.00 in/hr0.0 mm/hr 0.00 in0.0 mm
07:55 AM 74.7°F23.7°C 74.4°F23.6°C 99% Calm Calm -- 29.98 in1015.2 mb 0.00 in0.0 mm 0.00 in/hr0.0 mm/hr 0.00 in0.0 mm
07:54 AM 74.7°F23.7°C 74.4°F23.6°C 99% Calm Calm -- 29.99 in1015.6 mb 0.00 in0.0 mm 0.00 in/hr0.0 mm/hr 0.00 in0.0 mm
07:53 AM 74.7°F23.7°C 74.4°F23.6°C 99% Calm Calm -- 29.98 in1015.2 mb 0.00 in0.0 mm 0.00 in/hr0.0 mm/hr 0.00 in0.0 mm
07:52 AM 74.7°F23.7°C 74.4°F23.6°C 99% Calm Calm -- 29.98 in1015.2 mb 0.00 in0.0 mm 0.00 in/hr0.0 mm/hr 0.00 in0.0 mm
07:51 AM 74.5°F23.6°C 74.2°F23.4°C 99% Calm Calm -- 29.98 in1015.2 mb 0.00 in0.0 mm 0.00 in/hr0.0 mm/hr 0.00 in0.0 mm
07:50 AM 74.5°F23.6°C 74.2°F23.4°C 99% Calm Calm -- 29.98 in1015.2 mb 0.00 in0.0 mm 0.00 in/hr0.0 mm/hr 0.00 in0.0 mm
07:49 AM 74.5°F23.6°C 74.2°F23.4°C 99% Calm Calm -- 29.98 in1015.2 mb 0.00 in0.0 mm 0.00 in/hr0.0 mm/hr 0.00 in0.0 mm
07:48 AM 74.3°F23.5°C 74.1°F23.4°C 99% Calm Calm -- 29.98 in1015.2 mb 0.00 in0.0 mm 0.00 in/hr0.0 mm/hr 0.00 in0.0 mm
07:47 AM 74.3°F23.5°C 74.1°F23.4°C 99% Calm Calm -- 29.98 in1015.2 mb 0.00 in0.0 mm 0.00 in/hr0.0 mm/hr 0.00 in0.0 mm
07:46 AM 74.3°F23.5°C 74.1°F23.4°C 99% Calm Calm -- 29.98 in1015.2 mb 0.00 in0.0 mm 0.00 in/hr0.0 mm/hr 0.00 in0.0 mm
07:45 AM 74.3°F23.5°C 74.1°F23.4°C 99% Calm Calm -- 29.98 in1015.2 mb 0.00 in0.0 mm 0.00 in/hr0.0 mm/hr 0.00 in0.0 mm
07:44 AM 74.3°F23.5°C 74.1°F23.4°C 99% Calm Calm -- 29.98 in1015.2 mb 0.00 in0.0 mm 0.00 in/hr0.0 mm/hr 0.00 in0.0 mm
07:43 AM 74.3°F23.5°C 74.1°F23.4°C 99% Calm Calm -- 29.98 in1015.2 mb 0.00 in0.0 mm 0.00 in/hr0.0 mm/hr 0.00 in0.0 mm
07:42 AM 74.3°F23.5°C 74.1°F23.4°C 99% Calm Calm -- 29.98 in1015.2 mb 0.00 in0.0 mm 0.00 in/hr0.0 mm/hr 0.00 in0.0 mm
07:41 AM 74.3°F23.5°C 74.1°F23.4°C 99% Calm Calm -- 29.98 in1015.2 mb 0.00 in0.0 mm 0.00 in/hr0.0 mm/hr 0.00 in0.0 mm
07:40 AM 74.3°F23.5°C 74.1°F23.4°C 99% Calm Calm -- 29.98 in1015.2 mb 0.00 in0.0 mm 0.00 in/hr0.0 mm/hr 0.00 in0.0 mm
07:39 AM 74.3°F23.5°C 74.1°F23.4°C 99% Calm Calm -- 29.98 in1015.2 mb 0.00 in0.0 mm 0.00 in/hr0.0 mm/hr 0.00 in0.0 mm
07:38 AM 74.3°F23.5°C 74.1°F23.4°C 99% Calm Calm -- 29.98 in1015.2 mb 0.00 in0.0 mm 0.00 in/hr0.0 mm/hr 0.00 in0.0 mm
07:37 AM 74.3°F23.5°C 74.1°F23.4°C 99% Calm Calm -- 29.98 in1015.2 mb 0.00 in0.0 mm 0.00 in/hr0.0 mm/hr 0.00 in0.0 mm
07:36 AM 74.3°F23.5°C 74.1°F23.4°C 99% Calm Calm 0.7 mph1.1 kmh 29.98 in1015.2 mb 0.00 in0.0 mm 0.00 in/hr0.0 mm/hr 0.00 in0.0 mm
07:35 AM 74.3°F23.5°C 74.1°F23.4°C 99% Calm Calm 0.7 mph1.1 kmh 29.98 in1015.2 mb 0.00 in0.0 mm 0.00 in/hr0.0 mm/hr 0.00 in0.0 mm
07:34 AM 74.3°F23.5°C 74.1°F23.4°C 99% Calm Calm 0.7 mph1.1 kmh 29.98 in1015.2 mb 0.00 in0.0 mm 0.00 in/hr0.0 mm/hr 0.00 in0.0 mm
07:33 AM 74.3°F23.5°C 74.1°F23.4°C 99% Calm Calm 0.7 mph1.1 kmh 29.98 in1015.2 mb 0.00 in0.0 mm 0.00 in/hr0.0 mm/hr 0.00 in0.0 mm
07:32 AM 74.3°F23.5°C 74.1°F23.4°C 99% Calm Calm 0.7 mph1.1 kmh 29.98 in1015.2 mb 0.00 in0.0 mm 0.00 in/hr0.0 mm/hr 0.00 in0.0 mm
07:31 AM 74.3°F23.5°C 74.1°F23.4°C 99% Calm Calm 0.7 mph1.1 kmh 29.98 in1015.2 mb 0.00 in0.0 mm 0.00 in/hr0.0 mm/hr 0.00 in0.0 mm
07:30 AM 74.3°F23.5°C 74.1°F23.4°C 99% Calm Calm 0.7 mph1.1 kmh 29.98 in1015.2 mb 0.00 in0.0 mm 0.00 in/hr0.0 mm/hr 0.00 in0.0 mm
07:29 AM 74.3°F23.5°C 74.1°F23.4°C 99% Calm Calm 0.7 mph1.1 kmh 29.98 in1015.2 mb 0.00 in0.0 mm 0.00 in/hr0.0 mm/hr 0.00 in0.0 mm
07:28 AM 74.3°F23.5°C 74.1°F23.4°C 99% Calm Calm 0.7 mph1.1 kmh 29.98 in1015.2 mb 0.00 in0.0 mm 0.00 in/hr0.0 mm/hr 0.00 in0.0 mm
07:27 AM 74.3°F23.5°C 74.1°F23.4°C 99% Calm Calm 0.7 mph1.1 kmh 29.98 in1015.2 mb 0.00 in0.0 mm 0.00 in/hr0.0 mm/hr 0.00 in0.0 mm
07:26 AM 74.3°F23.5°C 74.1°F23.4°C 99% Calm Calm 0.7 mph1.1 kmh 29.98 in1015.2 mb 0.00 in0.0 mm 0.00 in/hr0.0 mm/hr 0.00 in0.0 mm
07:25 AM 74.3°F23.5°C 74.1°F23.4°C 99% Calm Calm -- 29.97 in1014.9 mb 0.00 in0.0 mm 0.00 in/hr0.0 mm/hr 0.00 in0.0 mm
07:24 AM 74.5°F23.6°C 74.2°F23.4°C 99% Calm Calm -- 29.98 in1015.2 mb 0.00 in0.0 mm 0.00 in/hr0.0 mm/hr 0.00 in0.0 mm
07:23 AM 74.5°F23.6°C 74.2°F23.4°C 99% Calm Calm -- 29.98 in1015.2 mb 0.00 in0.0 mm 0.00 in/hr0.0 mm/hr 0.00 in0.0 mm
07:22 AM 74.3°F23.5°C 74.1°F23.4°C 99% Calm Calm -- 29.98 in1015.2 mb 0.00 in0.0 mm 0.00 in/hr0.0 mm/hr 0.00 in0.0 mm
07:21 AM 74.3°F23.5°C 74.1°F23.4°C 99% Calm Calm -- 29.97 in1014.9 mb 0.00 in0.0 mm 0.00 in/hr0.0 mm/hr 0.00 in0.0 mm
07:20 AM 74.3°F23.5°C 74.1°F23.4°C 99% Calm Calm -- 29.98 in1015.2 mb 0.00 in0.0 mm 0.00 in/hr0.0 mm/hr 0.00 in0.0 mm
07:19 AM 74.5°F23.6°C 74.2°F23.4°C 99% Calm Calm -- 29.98 in1015.2 mb 0.00 in0.0 mm 0.00 in/hr0.0 mm/hr 0.00 in0.0 mm
07:18 AM 74.5°F23.6°C 74.2°F23.4°C 99% Calm Calm -- 29.98 in1015.2 mb 0.00 in0.0 mm 0.00 in/hr0.0 mm/hr 0.00 in0.0 mm
07:17 AM 74.5°F23.6°C 74.2°F23.4°C 99% Calm Calm 0.7 mph1.1 kmh 29.98 in1015.2 mb 0.00 in0.0 mm 0.00 in/hr0.0 mm/hr 0.00 in0.0 mm
07:16 AM 74.3°F23.5°C 74.1°F23.4°C 99% Calm Calm 1.6 mph2.6 kmh 29.98 in1015.2 mb 0.00 in0.0 mm 0.00 in/hr0.0 mm/hr 0.00 in0.0 mm
07:15 AM 74.3°F23.5°C 74.1°F23.4°C 99% Calm Calm 1.6 mph2.6 kmh 29.98 in1015.2 mb 0.00 in0.0 mm 0.00 in/hr0.0 mm/hr 0.00 in0.0 mm
07:14 AM 74.5°F23.6°C 74.2°F23.4°C 99% Calm Calm 1.6 mph2.6 kmh 29.97 in1014.9 mb 0.00 in0.0 mm 0.00 in/hr0.0 mm/hr 0.00 in0.0 mm
07:13 AM 74.5°F23.6°C 74.2°F23.4°C 99% Calm Calm 1.6 mph2.6 kmh 29.98 in1015.2 mb 0.00 in0.0 mm 0.00 in/hr0.0 mm/hr 0.00 in0.0 mm
07:12 AM 74.3°F23.5°C 74.1°F23.4°C 99% Calm Calm 1.6 mph2.6 kmh 29.98 in1015.2 mb 0.00 in0.0 mm 0.00 in/hr0.0 mm/hr 0.00 in0.0 mm
07:11 AM 74.3°F23.5°C 74.1°F23.4°C 99% Calm Calm 1.6 mph2.6 kmh 29.97 in1014.9 mb 0.00 in0.0 mm 0.00 in/hr0.0 mm/hr 0.00 in0.0 mm
07:10 AM 74.5°F23.6°C 74.2°F23.4°C 99% Calm Calm 1.6 mph2.6 kmh 29.97 in1014.9 mb 0.00 in0.0 mm 0.00 in/hr0.0 mm/hr 0.00 in0.0 mm
07:09 AM 74.3°F23.5°C 74.1°F23.4°C 99% Calm Calm 1.6 mph2.6 kmh 29.97 in1014.9 mb 0.00 in0.0 mm 0.00 in/hr0.0 mm/hr 0.00 in0.0 mm
07:08 AM 74.3°F23.5°C 74.1°F23.4°C 99% Calm Calm 1.6 mph2.6 kmh 29.98 in1015.2 mb 0.00 in0.0 mm 0.00 in/hr0.0 mm/hr 0.00 in0.0 mm
07:07 AM 74.3°F23.5°C 74.1°F23.4°C 99% Calm Calm 1.6 mph2.6 kmh 29.98 in1015.2 mb 0.00 in0.0 mm 0.00 in/hr0.0 mm/hr 0.00 in0.0 mm
07:06 AM 73.9°F23.3°C 73.7°F23.2°C 99% Calm Calm 1.6 mph2.6 kmh 29.97 in1014.9 mb 0.00 in0.0 mm 0.00 in/hr0.0 mm/hr 0.00 in0.0 mm
07:05 AM 73.9°F23.3°C 73.7°F23.2°C 99% Calm Calm 1.6 mph2.6 kmh 29.97 in1014.9 mb 0.00 in0.0 mm 0.00 in/hr0.0 mm/hr 0.00 in0.0 mm
07:04 AM 73.9°F23.3°C 73.7°F23.2°C 99% Calm Calm 1.6 mph2.6 kmh 29.97 in1014.9 mb 0.00 in0.0 mm 0.00 in/hr0.0 mm/hr 0.00 in0.0 mm
07:03 AM 73.9°F23.3°C 73.7°F23.2°C 99% Calm Calm 1.6 mph2.6 kmh 29.98 in1015.2 mb 0.00 in0.0 mm 0.00 in/hr0.0 mm/hr 0.00 in0.0 mm
07:02 AM 73.9°F23.3°C 73.7°F23.2°C 99% Calm Calm 1.6 mph2.6 kmh 29.98 in1015.2 mb 0.00 in0.0 mm 0.00 in/hr0.0 mm/hr 0.00 in0.0 mm
07:01 AM 73.9°F23.3°C 73.7°F23.2°C 99% Calm Calm 1.6 mph2.6 kmh 29.97 in1014.9 mb 0.00 in0.0 mm 0.00 in/hr0.0 mm/hr 0.00 in0.0 mm
07:00 AM 73.9°F23.3°C 73.7°F23.2°C 99% Calm Calm 1.6 mph2.6 kmh 29.98 in1015.2 mb 0.00 in0.0 mm 0.00 in/hr0.0 mm/hr 0.00 in0.0 mm
06:59 AM 73.9°F23.3°C 73.7°F23.2°C 99% Calm Calm 1.6 mph2.6 kmh 29.98 in1015.2 mb 0.00 in0.0 mm 0.00 in/hr0.0 mm/hr 0.00 in0.0 mm
06:58 AM 73.9°F23.3°C 73.7°F23.2°C 99% Calm Calm 1.6 mph2.6 kmh 29.98 in1015.2 mb 0.00 in0.0 mm 0.00 in/hr0.0 mm/hr 0.00 in0.0 mm
06:57 AM 73.9°F23.3°C 73.7°F23.2°C 99% Calm Calm 1.6 mph2.6 kmh 29.97 in1014.9 mb 0.00 in0.0 mm 0.00 in/hr0.0 mm/hr 0.00 in0.0 mm
06:56 AM 73.8°F23.2°C 73.5°F23.1°C 99% Calm Calm 1.6 mph2.6 kmh 29.98 in1015.2 mb 0.00 in0.0 mm 0.00 in/hr0.0 mm/hr 0.00 in0.0 mm
06:55 AM 73.8°F23.2°C 73.5°F23.1°C 99% Calm Calm 1.6 mph2.6 kmh 29.97 in1014.9 mb 0.00 in0.0 mm 0.00 in/hr0.0 mm/hr 0.00 in0.0 mm
06:54 AM 73.6°F23.1°C 73.3°F22.9°C 99% Calm Calm 1.6 mph2.6 kmh 29.98 in1015.2 mb 0.00 in0.0 mm 0.00 in/hr0.0 mm/hr 0.00 in0.0 mm
06:53 AM 73.8°F23.2°C 73.5°F23.1°C 99% Calm Calm 1.6 mph2.6 kmh 29.98 in1015.2 mb 0.00 in0.0 mm 0.00 in/hr0.0 mm/hr 0.00 in0.0 mm
06:52 AM 73.6°F23.1°C 73.3°F22.9°C 99% 0.7 mph WSW1.1 kmh WSW 1.6 mph2.6 kmh 29.98 in1015.2 mb 0.00 in0.0 mm 0.00 in/hr0.0 mm/hr 0.00 in0.0 mm
06:51 AM 73.4°F23.0°C 73.2°F22.9°C 99% Calm Calm 1.6 mph2.6 kmh 29.97 in1014.9 mb 0.00 in0.0 mm 0.00 in/hr0.0 mm/hr 0.00 in0.0 mm
06:50 AM 73.4°F23.0°C 73.2°F22.9°C 99% 0.7 mph W1.1 kmh W 1.6 mph2.6 kmh 29.97 in1014.9 mb 0.00 in0.0 mm 0.00 in/hr0.0 mm/hr 0.00 in0.0 mm
06:49 AM 73.4°F23.0°C 73.2°F22.9°C 99% Calm Calm 1.6 mph2.6 kmh 29.97 in1014.9 mb 0.00 in0.0 mm 0.00 in/hr0.0 mm/hr 0.00 in0.0 mm
06:48 AM 73.2°F22.9°C 73.0°F22.8°C 99% Calm Calm 0.7 mph1.1 kmh 29.97 in1014.9 mb 0.00 in0.0 mm 0.00 in/hr0.0 mm/hr 0.00 in0.0 mm
06:47 AM 73.2°F22.9°C 73.0°F22.8°C 99% Calm Calm 0.7 mph1.1 kmh 29.97 in1014.9 mb 0.00 in0.0 mm 0.00 in/hr0.0 mm/hr 0.00 in0.0 mm
06:46 AM 73.0°F22.8°C 72.8°F22.7°C 99% Calm Calm 0.7 mph1.1 kmh 29.97 in1014.9 mb 0.00 in0.0 mm 0.00 in/hr0.0 mm/hr 0.00 in0.0 mm
06:45 AM 72.9°F22.7°C 72.6°F22.6°C 99% Calm Calm 0.7 mph1.1 kmh 29.97 in1014.9 mb 0.00 in0.0 mm 0.00 in/hr0.0 mm/hr 0.00 in0.0 mm
06:44 AM 72.9°F22.7°C 72.6°F22.6°C 99% Calm Calm 0.7 mph1.1 kmh 29.97 in1014.9 mb 0.00 in0.0 mm 0.00 in/hr0.0 mm/hr 0.00 in0.0 mm
06:43 AM 72.9°F22.7°C 72.6°F22.6°C 99% Calm Calm 0.7 mph1.1 kmh 29.97 in1014.9 mb 0.00 in0.0 mm 0.00 in/hr0.0 mm/hr 0.00 in0.0 mm
06:42 AM 72.9°F22.7°C 72.6°F22.6°C 99% Calm Calm 0.7 mph1.1 kmh 29.97 in1014.9 mb 0.00 in0.0 mm 0.00 in/hr0.0 mm/hr 0.00 in0.0 mm
06:41 AM 72.7°F22.6°C 72.4°F22.4°C 99% Calm Calm 0.7 mph1.1 kmh 29.97 in1014.9 mb 0.00 in0.0 mm 0.00 in/hr0.0 mm/hr 0.00 in0.0 mm
06:40 AM 72.7°F22.6°C 72.4°F22.4°C 99% Calm Calm -- 29.97 in1014.9 mb 0.00 in0.0 mm 0.00 in/hr0.0 mm/hr 0.00 in0.0 mm
06:39 AM 72.5°F22.5°C 72.2°F22.3°C 99% Calm Calm -- 29.97 in1014.9 mb 0.00 in0.0 mm 0.00 in/hr0.0 mm/hr 0.00 in0.0 mm
06:38 AM 72.5°F22.5°C 72.2°F22.3°C 99% Calm Calm -- 29.97 in1014.9 mb 0.00 in0.0 mm 0.00 in/hr0.0 mm/hr 0.00 in0.0 mm
06:37 AM 72.3°F22.4°C 72.1°F22.3°C 99% Calm Calm -- 29.97 in1014.9 mb 0.00 in0.0 mm 0.00 in/hr0.0 mm/hr 0.00 in0.0 mm
06:36 AM 72.3°F22.4°C 72.1°F22.3°C 99% Calm Calm -- 29.97 in1014.9 mb 0.00 in0.0 mm 0.00 in/hr0.0 mm/hr 0.00 in0.0 mm
06:35 AM 72.1°F22.3°C 71.9°F22.2°C 99% Calm Calm -- 29.97 in1014.9 mb 0.00 in0.0 mm 0.00 in/hr0.0 mm/hr 0.00 in0.0 mm
06:34 AM 72.1°F22.3°C 71.9°F22.2°C 99% Calm Calm -- 29.97 in1014.9 mb 0.00 in0.0 mm 0.00 in/hr0.0 mm/hr 0.00 in0.0 mm
06:33 AM 72.0°F22.2°C 71.7°F22.1°C 99% Calm Calm -- 29.97 in1014.9 mb 0.00 in0.0 mm 0.00 in/hr0.0 mm/hr 0.00 in0.0 mm
06:32 AM 72.0°F22.2°C 71.7°F22.1°C 99% Calm Calm -- 29.97 in1014.9 mb 0.00 in0.0 mm 0.00 in/hr0.0 mm/hr 0.00 in0.0 mm
06:31 AM 72.0°F22.2°C 71.7°F22.1°C 99% Calm Calm -- 29.96 in1014.6 mb 0.00 in0.0 mm 0.00 in/hr0.0 mm/hr 0.00 in0.0 mm
06:30 AM 72.0°F22.2°C 71.7°F22.1°C 99% Calm Calm -- 29.96 in1014.6 mb 0.00 in0.0 mm 0.00 in/hr0.0 mm/hr 0.00 in0.0 mm
06:29 AM 71.8°F22.1°C 71.5°F21.9°C 99% Calm Calm -- 29.97 in1014.9 mb 0.00 in0.0 mm 0.00 in/hr0.0 mm/hr 0.00 in0.0 mm
06:28 AM 71.8°F22.1°C 71.5°F21.9°C 99% Calm Calm -- 29.97 in1014.9 mb 0.00 in0.0 mm 0.00 in/hr0.0 mm/hr 0.00 in0.0 mm
06:27 AM 71.8°F22.1°C 71.5°F21.9°C 99% Calm Calm -- 29.97 in1014.9 mb 0.00 in0.0 mm 0.00 in/hr0.0 mm/hr 0.00 in0.0 mm
06:26 AM 71.8°F22.1°C 71.5°F21.9°C 99% Calm Calm -- 29.96 in1014.6 mb 0.00 in0.0 mm 0.00 in/hr0.0 mm/hr 0.00 in0.0 mm
06:25 AM 71.8°F22.1°C 71.5°F21.9°C 99% Calm Calm -- 29.97 in1014.9 mb 0.00 in0.0 mm 0.00 in/hr0.0 mm/hr 0.00 in0.0 mm
06:24 AM 71.8°F22.1°C 71.5°F21.9°C 99% Calm Calm -- 29.96 in1014.6 mb 0.00 in0.0 mm 0.00 in/hr0.0 mm/hr 0.00 in0.0 mm
06:23 AM 71.8°F22.1°C 71.5°F21.9°C 99% Calm Calm -- 29.96 in1014.6 mb 0.00 in0.0 mm 0.00 in/hr0.0 mm/hr 0.00 in0.0 mm
06:22 AM 71.8°F22.1°C 71.5°F21.9°C 99% Calm Calm -- 29.96 in1014.6 mb 0.00 in0.0 mm 0.00 in/hr0.0 mm/hr 0.00 in0.0 mm
06:21 AM 71.8°F22.1°C 71.5°F21.9°C 99% Calm Calm -- 29.96 in1014.6 mb 0.00 in0.0 mm 0.00 in/hr0.0 mm/hr 0.00 in0.0 mm
06:20 AM 71.8°F22.1°C 71.5°F21.9°C 99% Calm Calm -- 29.96 in1014.6 mb 0.00 in0.0 mm 0.00 in/hr0.0 mm/hr 0.00 in0.0 mm
06:19 AM 71.8°F22.1°C 71.5°F21.9°C 99% Calm Calm -- 29.96 in1014.6 mb 0.00 in0.0 mm 0.00 in/hr0.0 mm/hr 0.00 in0.0 mm
06:18 AM 71.8°F22.1°C 71.5°F21.9°C 99% Calm Calm -- 29.97 in1014.9 mb 0.00 in0.0 mm 0.00 in/hr0.0 mm/hr 0.00 in0.0 mm
06:17 AM 71.8°F22.1°C 71.5°F21.9°C 99% Calm Calm -- 29.96 in1014.6 mb 0.00 in0.0 mm 0.00 in/hr0.0 mm/hr 0.00 in0.0 mm
06:16 AM 71.8°F22.1°C 71.5°F21.9°C 99% Calm Calm -- 29.96 in1014.6 mb 0.00 in0.0 mm 0.00 in/hr0.0 mm/hr 0.00 in0.0 mm
06:15 AM 71.8°F22.1°C 71.5°F21.9°C 99% Calm Calm -- 29.97 in1014.9 mb 0.00 in0.0 mm 0.00 in/hr0.0 mm/hr 0.00 in0.0 mm
06:14 AM 71.8°F22.1°C 71.5°F21.9°C 99% Calm Calm -- 29.96 in1014.6 mb 0.00 in0.0 mm 0.00 in/hr0.0 mm/hr 0.00 in0.0 mm
06:13 AM 71.6°F22.0°C 71.3°F21.8°C 99% Calm Calm -- 29.96 in1014.6 mb 0.00 in0.0 mm 0.00 in/hr0.0 mm/hr 0.00 in0.0 mm
06:12 AM 71.6°F22.0°C 71.3°F21.8°C 99% Calm Calm -- 29.97 in1014.9 mb 0.00 in0.0 mm 0.00 in/hr0.0 mm/hr 0.00 in0.0 mm
06:11 AM 71.6°F22.0°C 71.3°F21.8°C 99% Calm Calm -- 29.96 in1014.6 mb 0.00 in0.0 mm 0.00 in/hr0.0 mm/hr 0.00 in0.0 mm
06:10 AM 71.6°F22.0°C 71.3°F21.8°C 99% Calm Calm -- 29.97 in1014.9 mb 0.00 in0.0 mm 0.00 in/hr0.0 mm/hr 0.00 in0.0 mm
06:09 AM 71.6°F22.0°C 71.3°F21.8°C 99% Calm Calm -- 29.97 in1014.9 mb 0.00 in0.0 mm 0.00 in/hr0.0 mm/hr 0.00 in0.0 mm
06:08 AM 71.6°F22.0°C 71.3°F21.8°C 99% Calm Calm -- 29.97 in1014.9 mb 0.00 in0.0 mm 0.00 in/hr0.0 mm/hr 0.00 in0.0 mm
06:07 AM 71.6°F22.0°C 71.3°F21.8°C 99% Calm Calm -- 29.96 in1014.6 mb 0.00 in0.0 mm 0.00 in/hr0.0 mm/hr 0.00 in0.0 mm
06:06 AM 71.4°F21.9°C 71.2°F21.8°C 99% Calm Calm -- 29.96 in1014.6 mb 0.00 in0.0 mm 0.00 in/hr0.0 mm/hr 0.00 in0.0 mm
06:05 AM 71.4°F21.9°C 71.2°F21.8°C 99% Calm Calm -- 29.96 in1014.6 mb 0.00 in0.0 mm 0.00 in/hr0.0 mm/hr 0.00 in0.0 mm
06:04 AM 71.4°F21.9°C 71.2°F21.8°C 99% Calm Calm -- 29.96 in1014.6 mb 0.00 in0.0 mm 0.00 in/hr0.0 mm/hr 0.00 in0.0 mm
06:03 AM 71.4°F21.9°C 71.2°F21.8°C 99% Calm Calm -- 29.97 in1014.9 mb 0.00 in0.0 mm 0.00 in/hr0.0 mm/hr 0.00 in0.0 mm
06:02 AM 71.4°F21.9°C 71.2°F21.8°C 99% Calm Calm -- 29.96 in1014.6 mb 0.00 in0.0 mm 0.00 in/hr0.0 mm/hr 0.00 in0.0 mm
06:01 AM 71.4°F21.9°C 71.2°F21.8°C 99% Calm Calm -- 29.96 in1014.6 mb 0.00 in0.0 mm 0.00 in/hr0.0 mm/hr 0.00 in0.0 mm
06:00 AM 71.4°F21.9°C 71.2°F21.8°C 99% Calm Calm -- 29.96 in1014.6 mb 0.00 in0.0 mm 0.00 in/hr0.0 mm/hr 0.00 in0.0 mm
05:59 AM 71.4°F21.9°C 71.2°F21.8°C 99% Calm Calm -- 29.97 in1014.9 mb 0.00 in0.0 mm 0.00 in/hr0.0 mm/hr 0.00 in0.0 mm
05:58 AM 71.4°F21.9°C 71.2°F21.8°C 99% Calm Calm 1.6 mph2.6 kmh 29.96 in1014.6 mb 0.00 in0.0 mm 0.00 in/hr0.0 mm/hr 0.00 in0.0 mm
05:57 AM 71.4°F21.9°C 71.2°F21.8°C 99% Calm Calm 1.6 mph2.6 kmh 29.97 in1014.9 mb 0.00 in0.0 mm 0.00 in/hr0.0 mm/hr 0.00 in0.0 mm
05:56 AM 71.4°F21.9°C 71.2°F21.8°C 99% Calm Calm 1.6 mph2.6 kmh 29.96 in1014.6 mb 0.00 in0.0 mm 0.00 in/hr0.0 mm/hr 0.00 in0.0 mm
05:55 AM 71.4°F21.9°C 71.2°F21.8°C 99% Calm Calm 1.6 mph2.6 kmh 29.96 in1014.6 mb 0.00 in0.0 mm 0.00 in/hr0.0 mm/hr 0.00 in0.0 mm
05:54 AM 71.4°F21.9°C 71.2°F21.8°C 99% Calm Calm 1.6 mph2.6 kmh 29.96 in1014.6 mb 0.00 in0.0 mm 0.00 in/hr0.0 mm/hr 0.00 in0.0 mm
05:53 AM 71.4°F21.9°C 71.2°F21.8°C 99% Calm Calm 1.6 mph2.6 kmh 29.96 in1014.6 mb 0.00 in0.0 mm 0.00 in/hr0.0 mm/hr 0.00 in0.0 mm
05:52 AM 71.4°F21.9°C 71.2°F21.8°C 99% Calm Calm 1.6 mph2.6 kmh 29.96 in1014.6 mb 0.00 in0.0 mm 0.00 in/hr0.0 mm/hr 0.00 in0.0 mm
05:51 AM 71.4°F21.9°C 71.2°F21.8°C 99% Calm Calm 1.6 mph2.6 kmh 29.96 in1014.6 mb 0.00 in0.0 mm 0.00 in/hr0.0 mm/hr 0.00 in0.0 mm
05:50 AM 71.4°F21.9°C 71.2°F21.8°C 99% Calm Calm 1.6 mph2.6 kmh 29.96 in1014.6 mb 0.00 in0.0 mm 0.00 in/hr0.0 mm/hr 0.00 in0.0 mm
05:49 AM 71.6°F22.0°C 71.3°F21.8°C 99% Calm Calm 1.6 mph2.6 kmh 29.96 in1014.6 mb 0.00 in0.0 mm 0.00 in/hr0.0 mm/hr 0.00 in0.0 mm
05:48 AM 71.6°F22.0°C 71.3°F21.8°C 99% Calm Calm 0.7 mph1.1 kmh 29.96 in1014.6 mb 0.00 in0.0 mm 0.00 in/hr0.0 mm/hr 0.00 in0.0 mm
05:47 AM 71.6°F22.0°C 71.3°F21.8°C 99% Calm Calm -- 29.97 in1014.9 mb 0.00 in0.0 mm 0.00 in/hr0.0 mm/hr 0.00 in0.0 mm
05:46 AM 71.6°F22.0°C 71.3°F21.8°C 99% Calm Calm -- 29.96 in1014.6 mb 0.00 in0.0 mm 0.00 in/hr0.0 mm/hr 0.00 in0.0 mm
05:45 AM 71.6°F22.0°C 71.3°F21.8°C 99% Calm Calm -- 29.96 in1014.6 mb 0.00 in0.0 mm 0.00 in/hr0.0 mm/hr 0.00 in0.0 mm
05:44 AM 71.6°F22.0°C 71.3°F21.8°C 99% Calm Calm -- 29.96 in1014.6 mb 0.00 in0.0 mm 0.00 in/hr0.0 mm/hr 0.00 in0.0 mm
05:43 AM 71.6°F22.0°C 71.3°F21.8°C 99% Calm Calm -- 29.96 in1014.6 mb 0.00 in0.0 mm 0.00 in/hr0.0 mm/hr 0.00 in0.0 mm
05:42 AM 71.8°F22.1°C 71.5°F21.9°C 99% Calm Calm -- 29.96 in1014.6 mb 0.00 in0.0 mm 0.00 in/hr0.0 mm/hr 0.00 in0.0 mm
05:41 AM 71.8°F22.1°C 71.5°F21.9°C 99% Calm Calm -- 29.96 in1014.6 mb 0.00 in0.0 mm 0.00 in/hr0.0 mm/hr 0.00 in0.0 mm
05:40 AM 71.8°F22.1°C 71.5°F21.9°C 99% Calm Calm -- 29.96 in1014.6 mb 0.00 in0.0 mm 0.00 in/hr0.0 mm/hr 0.00 in0.0 mm
05:39 AM 72.0°F22.2°C 71.7°F22.1°C 99% Calm Calm -- 29.95 in1014.2 mb 0.00 in0.0 mm 0.00 in/hr0.0 mm/hr 0.00 in0.0 mm
05:38 AM 72.0°F22.2°C 71.7°F22.1°C 99% Calm Calm -- 29.96 in1014.6 mb 0.00 in0.0 mm 0.00 in/hr0.0 mm/hr 0.00 in0.0 mm
05:37 AM 72.0°F22.2°C 71.7°F22.1°C 99% Calm Calm -- 29.96 in1014.6 mb 0.00 in0.0 mm 0.00 in/hr0.0 mm/hr 0.00 in0.0 mm
05:36 AM 72.0°F22.2°C 71.7°F22.1°C 99% Calm Calm -- 29.95 in1014.2 mb 0.00 in0.0 mm 0.00 in/hr0.0 mm/hr 0.00 in0.0 mm
05:35 AM 72.0°F22.2°C 71.7°F22.1°C 99% Calm Calm -- 29.96 in1014.6 mb 0.00 in0.0 mm 0.00 in/hr0.0 mm/hr 0.00 in0.0 mm
05:34 AM 72.0°F22.2°C 71.7°F22.1°C 99% Calm Calm -- 29.96 in1014.6 mb 0.00 in0.0 mm 0.00 in/hr0.0 mm/hr 0.00 in0.0 mm
05:33 AM 72.1°F22.3°C 71.9°F22.2°C 99% Calm Calm -- 29.96 in1014.6 mb 0.00 in0.0 mm 0.00 in/hr0.0 mm/hr 0.00 in0.0 mm
05:32 AM 72.1°F22.3°C 71.9°F22.2°C 99% Calm Calm -- 29.96 in1014.6 mb 0.00 in0.0 mm 0.00 in/hr0.0 mm/hr 0.00 in0.0 mm
05:31 AM 72.1°F22.3°C 71.9°F22.2°C 99% Calm Calm -- 29.96 in1014.6 mb 0.00 in0.0 mm 0.00 in/hr0.0 mm/hr 0.00 in0.0 mm
05:30 AM 72.1°F22.3°C 71.9°F22.2°C 99% Calm Calm -- 29.96 in1014.6 mb 0.00 in0.0 mm 0.00 in/hr0.0 mm/hr 0.00 in0.0 mm
05:29 AM 72.1°F22.3°C 71.9°F22.2°C 99% Calm Calm -- 29.96 in1014.6 mb 0.00 in0.0 mm 0.00 in/hr0.0 mm/hr 0.00 in0.0 mm
05:28 AM 72.1°F22.3°C 71.9°F22.2°C 99% Calm Calm -- 29.96 in1014.6 mb 0.00 in0.0 mm 0.00 in/hr0.0 mm/hr 0.00 in0.0 mm
05:27 AM 72.1°F22.3°C 71.9°F22.2°C 99% Calm Calm -- 29.96 in1014.6 mb 0.00 in0.0 mm 0.00 in/hr0.0 mm/hr 0.00 in0.0 mm
05:26 AM 72.3°F22.4°C 72.1°F22.3°C 99% Calm Calm -- 29.96 in1014.6 mb 0.00 in0.0 mm 0.00 in/hr0.0 mm/hr 0.00 in0.0 mm
05:25 AM 72.3°F22.4°C 72.1°F22.3°C 99% Calm Calm -- 29.96 in1014.6 mb 0.00 in0.0 mm 0.00 in/hr0.0 mm/hr 0.00 in0.0 mm
05:24 AM 72.3°F22.4°C 72.1°F22.3°C 99% Calm Calm -- 29.96 in1014.6 mb 0.00 in0.0 mm 0.00 in/hr0.0 mm/hr 0.00 in0.0 mm
05:23 AM 72.3°F22.4°C 72.1°F22.3°C 99% Calm Calm -- 29.96 in1014.6 mb 0.00 in0.0 mm 0.00 in/hr0.0 mm/hr 0.00 in0.0 mm
05:22 AM 72.3°F22.4°C 72.1°F22.3°C 99% Calm Calm -- 29.96 in1014.6 mb 0.00 in0.0 mm 0.00 in/hr0.0 mm/hr 0.00 in0.0 mm
05:21 AM 72.3°F22.4°C 72.1°F22.3°C 99% Calm Calm -- 29.96 in1014.6 mb 0.00 in0.0 mm 0.00 in/hr0.0 mm/hr 0.00 in0.0 mm
05:20 AM 72.3°F22.4°C 72.1°F22.3°C 99% Calm Calm -- 29.96 in1014.6 mb 0.00 in0.0 mm 0.00 in/hr0.0 mm/hr 0.00 in0.0 mm
05:19 AM 72.3°F22.4°C 72.1°F22.3°C 99% Calm Calm -- 29.96 in1014.6 mb 0.00 in0.0 mm 0.00 in/hr0.0 mm/hr 0.00 in0.0 mm
05:18 AM 72.3°F22.4°C 72.1°F22.3°C 99% Calm Calm -- 29.96 in1014.6 mb 0.00 in0.0 mm 0.00 in/hr0.0 mm/hr 0.00 in0.0 mm
05:17 AM 72.5°F22.5°C 72.2°F22.3°C 99% Calm Calm -- 29.96 in1014.6 mb 0.00 in0.0 mm 0.00 in/hr0.0 mm/hr 0.00 in0.0 mm
05:16 AM 72.3°F22.4°C 72.1°F22.3°C 99% Calm Calm -- 29.96 in1014.6 mb 0.00 in0.0 mm 0.00 in/hr0.0 mm/hr 0.00 in0.0 mm
05:15 AM 72.3°F22.4°C 72.1°F22.3°C 99% Calm Calm -- 29.96 in1014.6 mb 0.00 in0.0 mm 0.00 in/hr0.0 mm/hr 0.00 in0.0 mm
05:14 AM 72.5°F22.5°C 72.2°F22.3°C 99% Calm Calm -- 29.96 in1014.6 mb 0.00 in0.0 mm 0.00 in/hr0.0 mm/hr 0.00 in0.0 mm
05:13 AM 72.3°F22.4°C 72.1°F22.3°C 99% Calm Calm -- 29.96 in1014.6 mb 0.00 in0.0 mm 0.00 in/hr0.0 mm/hr 0.00 in0.0 mm
05:12 AM 72.5°F22.5°C 72.2°F22.3°C 99% Calm Calm -- 29.97 in1014.9 mb 0.00 in0.0 mm 0.00 in/hr0.0 mm/hr 0.00 in0.0 mm
05:11 AM 72.5°F22.5°C 72.2°F22.3°C 99% Calm Calm -- 29.96 in1014.6 mb 0.00 in0.0 mm 0.00 in/hr0.0 mm/hr 0.00 in0.0 mm
05:10 AM 72.5°F22.5°C 72.2°F22.3°C 99% Calm Calm -- 29.96 in1014.6 mb 0.00 in0.0 mm 0.00 in/hr0.0 mm/hr 0.00 in0.0 mm
05:09 AM 72.5°F22.5°C 72.2°F22.3°C 99% Calm Calm -- 29.96 in1014.6 mb 0.00 in0.0 mm 0.00 in/hr0.0 mm/hr 0.00 in0.0 mm
05:08 AM 72.5°F22.5°C 72.2°F22.3°C 99% Calm Calm -- 29.96 in1014.6 mb 0.00 in0.0 mm 0.00 in/hr0.0 mm/hr 0.00 in0.0 mm
05:07 AM 72.5°F22.5°C 72.2°F22.3°C 99% Calm Calm -- 29.96 in1014.6 mb 0.00 in0.0 mm 0.00 in/hr0.0 mm/hr 0.00 in0.0 mm
05:06 AM 72.5°F22.5°C 72.2°F22.3°C 99% Calm Calm -- 29.96 in1014.6 mb 0.00 in0.0 mm 0.00 in/hr0.0 mm/hr 0.00 in0.0 mm
05:05 AM 72.5°F22.5°C 72.2°F22.3°C 99% Calm Calm -- 29.96 in1014.6 mb 0.00 in0.0 mm 0.00 in/hr0.0 mm/hr 0.00 in0.0 mm
05:04 AM 72.5°F22.5°C 72.2°F22.3°C 99% Calm Calm -- 29.96 in1014.6 mb 0.00 in0.0 mm 0.00 in/hr0.0 mm/hr 0.00 in0.0 mm
05:03 AM 72.5°F22.5°C 72.2°F22.3°C 99% Calm Calm -- 29.96 in1014.6 mb 0.00 in0.0 mm 0.00 in/hr0.0 mm/hr 0.00 in0.0 mm
05:02 AM 72.5°F22.5°C 72.2°F22.3°C 99% Calm Calm -- 29.96 in1014.6 mb 0.00 in0.0 mm 0.00 in/hr0.0 mm/hr 0.00 in0.0 mm
05:01 AM 72.5°F22.5°C 72.2°F22.3°C 99% Calm Calm -- 29.96 in1014.6 mb 0.00 in0.0 mm 0.00 in/hr0.0 mm/hr 0.00 in0.0 mm
05:00 AM 72.5°F22.5°C 72.2°F22.3°C 99% Calm Calm -- 29.96 in1014.6 mb 0.00 in0.0 mm 0.00 in/hr0.0 mm/hr 0.00 in0.0 mm
04:59 AM 72.5°F22.5°C 72.2°F22.3°C 99% Calm Calm -- 29.96 in1014.6 mb 0.00 in0.0 mm 0.00 in/hr0.0 mm/hr 0.00 in0.0 mm
04:58 AM 72.5°F22.5°C 72.2°F22.3°C 99% Calm Calm -- 29.96 in1014.6 mb 0.00 in0.0 mm 0.00 in/hr0.0 mm/hr 0.00 in0.0 mm
04:57 AM 72.3°F22.4°C 72.1°F22.3°C 99% Calm Calm -- 29.96 in1014.6 mb 0.00 in0.0 mm 0.00 in/hr0.0 mm/hr 0.00 in0.0 mm
04:56 AM 72.3°F22.4°C 72.1°F22.3°C 99% Calm Calm -- 29.96 in1014.6 mb 0.00 in0.0 mm 0.00 in/hr0.0 mm/hr 0.00 in0.0 mm
04:55 AM 72.3°F22.4°C 72.1°F22.3°C 99% Calm Calm -- 29.96 in1014.6 mb 0.00 in0.0 mm 0.00 in/hr0.0 mm/hr 0.00 in0.0 mm
04:54 AM 72.3°F22.4°C 72.1°F22.3°C 99% Calm Calm -- 29.96 in1014.6 mb 0.00 in0.0 mm 0.00 in/hr0.0 mm/hr 0.00 in0.0 mm
04:53 AM 72.3°F22.4°C 72.1°F22.3°C 99% Calm Calm -- 29.96 in1014.6 mb 0.00 in0.0 mm 0.00 in/hr0.0 mm/hr 0.00 in0.0 mm
04:52 AM 72.3°F22.4°C 72.1°F22.3°C 99% Calm Calm -- 29.96 in1014.6 mb 0.00 in0.0 mm 0.00 in/hr0.0 mm/hr 0.00 in0.0 mm
04:51 AM 72.3°F22.4°C 72.1°F22.3°C 99% Calm Calm -- 29.96 in1014.6 mb 0.00 in0.0 mm 0.00 in/hr0.0 mm/hr 0.00 in0.0 mm
04:50 AM 72.3°F22.4°C 72.1°F22.3°C 99% Calm Calm -- 29.96 in1014.6 mb 0.00 in0.0 mm 0.00 in/hr0.0 mm/hr 0.00 in0.0 mm
04:49 AM 72.3°F22.4°C 72.1°F22.3°C 99% Calm Calm -- 29.96 in1014.6 mb 0.00 in0.0 mm 0.00 in/hr0.0 mm/hr 0.00 in0.0 mm
04:48 AM 72.3°F22.4°C 72.1°F22.3°C 99% Calm Calm -- 29.96 in1014.6 mb 0.00 in0.0 mm 0.00 in/hr0.0 mm/hr 0.00 in0.0 mm
04:47 AM 72.3°F22.4°C 72.1°F22.3°C 99% Calm Calm -- 29.96 in1014.6 mb 0.00 in0.0 mm 0.00 in/hr0.0 mm/hr 0.00 in0.0 mm
04:46 AM 72.3°F22.4°C 72.1°F22.3°C 99% Calm Calm -- 29.96 in1014.6 mb 0.00 in0.0 mm 0.00 in/hr0.0 mm/hr 0.00 in0.0 mm
04:45 AM 72.3°F22.4°C 72.1°F22.3°C 99% Calm Calm -- 29.95 in1014.2 mb 0.00 in0.0 mm 0.00 in/hr0.0 mm/hr 0.00 in0.0 mm
04:44 AM 72.3°F22.4°C 72.1°F22.3°C 99% Calm Calm -- 29.95 in1014.2 mb 0.00 in0.0 mm 0.00 in/hr0.0 mm/hr 0.00 in0.0 mm
04:43 AM 72.3°F22.4°C 72.1°F22.3°C 99% Calm Calm -- 29.95 in1014.2 mb 0.00 in0.0 mm 0.00 in/hr0.0 mm/hr 0.00 in0.0 mm
04:42 AM 72.3°F22.4°C 72.1°F22.3°C 99% Calm Calm -- 29.95 in1014.2 mb 0.00 in0.0 mm 0.00 in/hr0.0 mm/hr 0.00 in0.0 mm
04:41 AM 72.3°F22.4°C 72.1°F22.3°C 99% Calm Calm -- 29.96 in1014.6 mb 0.00 in0.0 mm 0.00 in/hr0.0 mm/hr 0.00 in0.0 mm
04:40 AM 72.3°F22.4°C 72.1°F22.3°C 99% Calm Calm -- 29.96 in1014.6 mb 0.00 in0.0 mm 0.00 in/hr0.0 mm/hr 0.00 in0.0 mm
04:39 AM 72.3°F22.4°C 72.1°F22.3°C 99% Calm Calm -- 29.96 in1014.6 mb 0.00 in0.0 mm 0.00 in/hr0.0 mm/hr 0.00 in0.0 mm
04:38 AM 72.5°F22.5°C 72.2°F22.3°C 99% Calm Calm -- 29.95 in1014.2 mb 0.00 in0.0 mm 0.00 in/hr0.0 mm/hr 0.00 in0.0 mm
04:37 AM 72.5°F22.5°C 72.2°F22.3°C 99% Calm Calm -- 29.96 in1014.6 mb 0.00 in0.0 mm 0.00 in/hr0.0 mm/hr 0.00 in0.0 mm
04:36 AM 72.5°F22.5°C 72.2°F22.3°C 99% Calm Calm -- 29.96 in1014.6 mb 0.00 in0.0 mm 0.00 in/hr0.0 mm/hr 0.00 in0.0 mm
04:35 AM 72.5°F22.5°C 72.2°F22.3°C 99% Calm Calm -- 29.95 in1014.2 mb 0.00 in0.0 mm 0.00 in/hr0.0 mm/hr 0.00 in0.0 mm
04:34 AM 72.5°F22.5°C 72.2°F22.3°C 99% Calm Calm -- 29.96 in1014.6 mb 0.00 in0.0 mm 0.00 in/hr0.0 mm/hr 0.00 in0.0 mm
04:33 AM 72.5°F22.5°C 72.2°F22.3°C 99% Calm Calm -- 29.95 in1014.2 mb 0.00 in0.0 mm 0.00 in/hr0.0 mm/hr 0.00 in0.0 mm
04:32 AM 72.5°F22.5°C 72.2°F22.3°C 99% Calm Calm -- 29.95 in1014.2 mb 0.00 in0.0 mm 0.00 in/hr0.0 mm/hr 0.00 in0.0 mm
04:31 AM 72.5°F22.5°C 72.2°F22.3°C 99% Calm Calm -- 29.96 in1014.6 mb 0.00 in0.0 mm 0.00 in/hr0.0 mm/hr 0.00 in0.0 mm
04:30 AM 72.5°F22.5°C 72.2°F22.3°C 99% Calm Calm -- 29.96 in1014.6 mb 0.00 in0.0 mm 0.00 in/hr0.0 mm/hr 0.00 in0.0 mm
04:29 AM 72.5°F22.5°C 72.2°F22.3°C 99% Calm Calm -- 29.95 in1014.2 mb 0.00 in0.0 mm 0.00 in/hr0.0 mm/hr 0.00 in0.0 mm
04:28 AM 72.5°F22.5°C 72.2°F22.3°C 99% Calm Calm -- 29.96 in1014.6 mb 0.00 in0.0 mm 0.00 in/hr0.0 mm/hr 0.00 in0.0 mm
04:27 AM 72.5°F22.5°C 72.2°F22.3°C 99% Calm Calm -- 29.95 in1014.2 mb 0.00 in0.0 mm 0.00 in/hr0.0 mm/hr 0.00 in0.0 mm
04:26 AM 72.5°F22.5°C 72.2°F22.3°C 99% Calm Calm -- 29.95 in1014.2 mb 0.00 in0.0 mm 0.00 in/hr0.0 mm/hr 0.00 in0.0 mm
04:25 AM 72.5°F22.5°C 72.2°F22.3°C 99% Calm Calm -- 29.95 in1014.2 mb 0.00 in0.0 mm 0.00 in/hr0.0 mm/hr 0.00 in0.0 mm
04:24 AM 72.5°F22.5°C 72.2°F22.3°C 99% Calm Calm -- 29.96 in1014.6 mb 0.00 in0.0 mm 0.00 in/hr0.0 mm/hr 0.00 in0.0 mm
04:23 AM 72.5°F22.5°C 72.2°F22.3°C 99% Calm Calm -- 29.96 in1014.6 mb 0.00 in0.0 mm 0.00 in/hr0.0 mm/hr 0.00 in0.0 mm
04:22 AM 72.5°F22.5°C 72.2°F22.3°C 99% Calm Calm -- 29.95 in1014.2 mb 0.00 in0.0 mm 0.00 in/hr0.0 mm/hr 0.00 in0.0 mm
04:21 AM 72.7°F22.6°C 72.4°F22.4°C 99% Calm Calm -- 29.96 in1014.6 mb 0.00 in0.0 mm 0.00 in/hr0.0 mm/hr 0.00 in0.0 mm
04:20 AM 72.5°F22.5°C 72.2°F22.3°C 99% Calm Calm -- 29.96 in1014.6 mb 0.00 in0.0 mm 0.00 in/hr0.0 mm/hr 0.00 in0.0 mm
04:19 AM 72.7°F22.6°C 72.4°F22.4°C 99% Calm Calm -- 29.96 in1014.6 mb 0.00 in0.0 mm 0.00 in/hr0.0 mm/hr 0.00 in0.0 mm
04:18 AM 72.7°F22.6°C 72.4°F22.4°C 99% Calm Calm -- 29.96 in1014.6 mb 0.00 in0.0 mm 0.00 in/hr0.0 mm/hr 0.00 in0.0 mm
04:17 AM 72.5°F22.5°C 72.2°F22.3°C 99% Calm Calm -- 29.96 in1014.6 mb 0.00 in0.0 mm 0.00 in/hr0.0 mm/hr 0.00 in0.0 mm
04:16 AM 72.7°F22.6°C 72.4°F22.4°C 99% Calm Calm -- 29.96 in1014.6 mb 0.00 in0.0 mm 0.00 in/hr0.0 mm/hr 0.00 in0.0 mm
04:15 AM 72.7°F22.6°C 72.4°F22.4°C 99% Calm Calm -- 29.96 in1014.6 mb 0.00 in0.0 mm 0.00 in/hr0.0 mm/hr 0.00 in0.0 mm
04:14 AM 72.7°F22.6°C 72.4°F22.4°C 99% Calm Calm -- 29.96 in1014.6 mb 0.00 in0.0 mm 0.00 in/hr0.0 mm/hr 0.00 in0.0 mm
04:13 AM 72.5°F22.5°C 72.2°F22.3°C 99% Calm Calm -- 29.96 in1014.6 mb 0.00 in0.0 mm 0.00 in/hr0.0 mm/hr 0.00 in0.0 mm
04:12 AM 72.7°F22.6°C 72.4°F22.4°C 99% Calm Calm -- 29.96 in1014.6 mb 0.00 in0.0 mm 0.00 in/hr0.0 mm/hr 0.00 in0.0 mm
04:11 AM 72.7°F22.6°C 72.4°F22.4°C 99% Calm Calm -- 29.95 in1014.2 mb 0.00 in0.0 mm 0.00 in/hr0.0 mm/hr 0.00 in0.0 mm
04:10 AM 72.7°F22.6°C 72.4°F22.4°C 99% Calm Calm -- 29.96 in1014.6 mb 0.00 in0.0 mm 0.00 in/hr0.0 mm/hr 0.00 in0.0 mm
04:09 AM 72.7°F22.6°C 72.4°F22.4°C 99% Calm Calm -- 29.95 in1014.2 mb 0.00 in0.0 mm 0.00 in/hr0.0 mm/hr 0.00 in0.0 mm
04:08 AM 72.7°F22.6°C 72.4°F22.4°C 99% Calm Calm -- 29.96 in1014.6 mb 0.00 in0.0 mm 0.00 in/hr0.0 mm/hr 0.00 in0.0 mm
04:07 AM 72.7°F22.6°C 72.4°F22.4°C 99% Calm Calm -- 29.96 in1014.6 mb 0.00 in0.0 mm 0.00 in/hr0.0 mm/hr 0.00 in0.0 mm
04:06 AM 72.9°F22.7°C 72.6°F22.6°C 99% Calm Calm -- 29.96 in1014.6 mb 0.00 in0.0 mm 0.00 in/hr0.0 mm/hr 0.00 in0.0 mm
04:05 AM 72.9°F22.7°C 72.6°F22.6°C 99% Calm Calm -- 29.96 in1014.6 mb 0.00 in0.0 mm 0.00 in/hr0.0 mm/hr 0.00 in0.0 mm
04:04 AM 72.9°F22.7°C 72.6°F22.6°C 99% Calm Calm -- 29.96 in1014.6 mb 0.00 in0.0 mm 0.00 in/hr0.0 mm/hr 0.00 in0.0 mm
04:03 AM 72.9°F22.7°C 72.6°F22.6°C 99% Calm Calm -- 29.97 in1014.9 mb 0.00 in0.0 mm 0.00 in/hr0.0 mm/hr 0.00 in0.0 mm
04:02 AM 72.9°F22.7°C 72.6°F22.6°C 99% Calm Calm -- 29.96 in1014.6 mb 0.00 in0.0 mm 0.00 in/hr0.0 mm/hr 0.00 in0.0 mm
04:01 AM 72.9°F22.7°C 72.6°F22.6°C 99% Calm Calm -- 29.96 in1014.6 mb 0.00 in0.0 mm 0.00 in/hr0.0 mm/hr 0.00 in0.0 mm
04:00 AM 72.9°F22.7°C 72.6°F22.6°C 99% Calm Calm -- 29.96 in1014.6 mb 0.00 in0.0 mm 0.00 in/hr0.0 mm/hr 0.00 in0.0 mm
03:59 AM 72.9°F22.7°C 72.6°F22.6°C 99% Calm Calm -- 29.96 in1014.6 mb 0.00 in0.0 mm 0.00 in/hr0.0 mm/hr 0.00 in0.0 mm
03:58 AM 72.9°F22.7°C 72.6°F22.6°C 99% Calm Calm -- 29.97 in1014.9 mb 0.00 in0.0 mm 0.00 in/hr0.0 mm/hr 0.00 in0.0 mm
03:57 AM 72.7°F22.6°C 72.4°F22.4°C 99% Calm Calm -- 29.96 in1014.6 mb 0.00 in0.0 mm 0.00 in/hr0.0 mm/hr 0.00 in0.0 mm
03:56 AM 72.9°F22.7°C 72.6°F22.6°C 99% Calm Calm -- 29.96 in1014.6 mb 0.00 in0.0 mm 0.00 in/hr0.0 mm/hr 0.00 in0.0 mm
03:55 AM 72.9°F22.7°C 72.6°F22.6°C 99% Calm Calm -- 29.97 in1014.9 mb 0.00 in0.0 mm 0.00 in/hr0.0 mm/hr 0.00 in0.0 mm
03:54 AM 72.9°F22.7°C 72.6°F22.6°C 99% Calm Calm -- 29.96 in1014.6 mb 0.00 in0.0 mm 0.00 in/hr0.0 mm/hr 0.00 in0.0 mm
03:53 AM 72.9°F22.7°C 72.6°F22.6°C 99% Calm Calm -- 29.96 in1014.6 mb 0.00 in0.0 mm 0.00 in/hr0.0 mm/hr 0.00 in0.0 mm
03:52 AM 72.9°F22.7°C 72.6°F22.6°C 99% Calm Calm -- 29.96 in1014.6 mb 0.00 in0.0 mm 0.00 in/hr0.0 mm/hr 0.00 in0.0 mm
03:51 AM 72.9°F22.7°C 72.6°F22.6°C 99% Calm Calm -- 29.97 in1014.9 mb 0.00 in0.0 mm 0.00 in/hr0.0 mm/hr 0.00 in0.0 mm
03:50 AM 72.9°F22.7°C 72.6°F22.6°C 99% Calm Calm -- 29.96 in1014.6 mb 0.00 in0.0 mm 0.00 in/hr0.0 mm/hr 0.00 in0.0 mm
03:49 AM 72.9°F22.7°C 72.6°F22.6°C 99% Calm Calm -- 29.96 in1014.6 mb 0.00 in0.0 mm 0.00 in/hr0.0 mm/hr 0.00 in0.0 mm
03:48 AM 72.9°F22.7°C 72.6°F22.6°C 99% Calm Calm -- 29.96 in1014.6 mb 0.00 in0.0 mm 0.00 in/hr0.0 mm/hr 0.00 in0.0 mm
03:47 AM 72.9°F22.7°C 72.6°F22.6°C 99% Calm Calm -- 29.96 in1014.6 mb 0.00 in0.0 mm 0.00 in/hr0.0 mm/hr 0.00 in0.0 mm
03:46 AM 72.9°F22.7°C 72.6°F22.6°C 99% Calm Calm -- 29.96 in1014.6 mb 0.00 in0.0 mm 0.00 in/hr0.0 mm/hr 0.00 in0.0 mm
03:45 AM 72.9°F22.7°C 72.6°F22.6°C 99% Calm Calm -- 29.96 in1014.6 mb 0.00 in0.0 mm 0.00 in/hr0.0 mm/hr 0.00 in0.0 mm
03:44 AM 72.9°F22.7°C 72.6°F22.6°C 99% Calm Calm -- 29.97 in1014.9 mb 0.00 in0.0 mm 0.00 in/hr0.0 mm/hr 0.00 in0.0 mm
03:43 AM 72.9°F22.7°C 72.6°F22.6°C 99% Calm Calm -- 29.96 in1014.6 mb 0.00 in0.0 mm 0.00 in/hr0.0 mm/hr 0.00 in0.0 mm
03:42 AM 72.9°F22.7°C 72.6°F22.6°C 99% Calm Calm -- 29.97 in1014.9 mb 0.00 in0.0 mm 0.00 in/hr0.0 mm/hr 0.00 in0.0 mm
03:41 AM 72.9°F22.7°C 72.6°F22.6°C 99% Calm Calm -- 29.96 in1014.6 mb 0.00 in0.0 mm 0.00 in/hr0.0 mm/hr 0.00 in0.0 mm
03:40 AM 72.9°F22.7°C 72.6°F22.6°C 99% Calm Calm -- 29.96 in1014.6 mb 0.00 in0.0 mm 0.00 in/hr0.0 mm/hr 0.00 in0.0 mm
03:39 AM 72.9°F22.7°C 72.6°F22.6°C 99% Calm Calm -- 29.96 in1014.6 mb 0.00 in0.0 mm 0.00 in/hr0.0 mm/hr 0.00 in0.0 mm
03:38 AM 72.9°F22.7°C 72.6°F22.6°C 99% Calm Calm -- 29.96 in1014.6 mb 0.00 in0.0 mm 0.00 in/hr0.0 mm/hr 0.00 in0.0 mm
03:37 AM 72.9°F22.7°C 72.6°F22.6°C 99% Calm Calm -- 29.96 in1014.6 mb 0.00 in0.0 mm 0.00 in/hr0.0 mm/hr 0.00 in0.0 mm
03:36 AM 73.0°F22.8°C 72.8°F22.7°C 99% Calm Calm -- 29.96 in1014.6 mb 0.00 in0.0 mm 0.00 in/hr0.0 mm/hr 0.00 in0.0 mm
03:35 AM 72.9°F22.7°C 72.6°F22.6°C 99% Calm Calm -- 29.96 in1014.6 mb 0.00 in0.0 mm 0.00 in/hr0.0 mm/hr 0.00 in0.0 mm
03:34 AM 73.0°F22.8°C 72.8°F22.7°C 99% Calm Calm -- 29.96 in1014.6 mb 0.00 in0.0 mm 0.00 in/hr0.0 mm/hr 0.00 in0.0 mm
03:33 AM 73.0°F22.8°C 72.8°F22.7°C 99% Calm Calm -- 29.97 in1014.9 mb 0.00 in0.0 mm 0.00 in/hr0.0 mm/hr 0.00 in0.0 mm
03:32 AM 73.0°F22.8°C 72.8°F22.7°C 99% Calm Calm -- 29.96 in1014.6 mb 0.00 in0.0 mm 0.00 in/hr0.0 mm/hr 0.00 in0.0 mm
03:31 AM 72.9°F22.7°C 72.6°F22.6°C 99% Calm Calm -- 29.97 in1014.9 mb 0.00 in0.0 mm 0.00 in/hr0.0 mm/hr 0.00 in0.0 mm
03:30 AM 72.9°F22.7°C 72.6°F22.6°C 99% Calm Calm -- 29.96 in1014.6 mb 0.00 in0.0 mm 0.00 in/hr0.0 mm/hr 0.00 in0.0 mm
03:29 AM 73.0°F22.8°C 72.8°F22.7°C 99% Calm Calm -- 29.96 in1014.6 mb 0.00 in0.0 mm 0.00 in/hr0.0 mm/hr 0.00 in0.0 mm
03:28 AM 73.0°F22.8°C 72.8°F22.7°C 99% Calm Calm -- 29.96 in1014.6 mb 0.00 in0.0 mm 0.00 in/hr0.0 mm/hr 0.00 in0.0 mm
03:27 AM 73.0°F22.8°C 72.8°F22.7°C 99% Calm Calm -- 29.96 in1014.6 mb 0.00 in0.0 mm 0.00 in/hr0.0 mm/hr 0.00 in0.0 mm
03:26 AM 73.0°F22.8°C 72.8°F22.7°C 99% Calm Calm -- 29.97 in1014.9 mb 0.00 in0.0 mm 0.00 in/hr0.0 mm/hr 0.00 in0.0 mm
03:25 AM 73.0°F22.8°C 72.8°F22.7°C 99% Calm Calm -- 29.96 in1014.6 mb 0.00 in0.0 mm 0.00 in/hr0.0 mm/hr 0.00 in0.0 mm
03:24 AM 73.0°F22.8°C 72.8°F22.7°C 99% Calm Calm -- 29.96 in1014.6 mb 0.00 in0.0 mm 0.00 in/hr0.0 mm/hr 0.00 in0.0 mm
03:23 AM 73.0°F22.8°C 72.8°F22.7°C 99% Calm Calm -- 29.96 in1014.6 mb 0.00 in0.0 mm 0.00 in/hr0.0 mm/hr 0.00 in0.0 mm
03:22 AM 73.0°F22.8°C 72.8°F22.7°C 99% Calm Calm -- 29.96 in1014.6 mb 0.00 in0.0 mm 0.00 in/hr0.0 mm/hr 0.00 in0.0 mm
03:21 AM 73.0°F22.8°C 72.8°F22.7°C 99% Calm Calm -- 29.96 in1014.6 mb 0.00 in0.0 mm 0.00 in/hr0.0 mm/hr 0.00 in0.0 mm
03:20 AM 73.0°F22.8°C 72.8°F22.7°C 99% Calm Calm -- 29.96 in1014.6 mb 0.00 in0.0 mm 0.00 in/hr0.0 mm/hr 0.00 in0.0 mm
03:19 AM 73.2°F22.9°C 73.0°F22.8°C 99% Calm Calm -- 29.96 in1014.6 mb 0.00 in0.0 mm 0.00 in/hr0.0 mm/hr 0.00 in0.0 mm
03:18 AM 73.0°F22.8°C 72.8°F22.7°C 99% Calm Calm -- 29.96 in1014.6 mb 0.00 in0.0 mm 0.00 in/hr0.0 mm/hr 0.00 in0.0 mm
03:17 AM 73.0°F22.8°C 72.8°F22.7°C 99% Calm Calm -- 29.96 in1014.6 mb 0.00 in0.0 mm 0.00 in/hr0.0 mm/hr 0.00 in0.0 mm
03:16 AM 73.0°F22.8°C 72.8°F22.7°C 99% Calm Calm -- 29.96 in1014.6 mb 0.00 in0.0 mm 0.00 in/hr0.0 mm/hr 0.00 in0.0 mm
03:15 AM 73.0°F22.8°C 72.8°F22.7°C 99% Calm Calm -- 29.97 in1014.9 mb 0.00 in0.0 mm 0.00 in/hr0.0 mm/hr 0.00 in0.0 mm
03:14 AM 73.0°F22.8°C 72.8°F22.7°C 99% Calm Calm -- 29.96 in1014.6 mb 0.00 in0.0 mm 0.00 in/hr0.0 mm/hr 0.00 in0.0 mm
03:13 AM 73.0°F22.8°C 72.8°F22.7°C 99% Calm Calm -- 29.96 in1014.6 mb 0.00 in0.0 mm 0.00 in/hr0.0 mm/hr 0.00 in0.0 mm
03:12 AM 73.0°F22.8°C 72.8°F22.7°C 99% Calm Calm -- 29.96 in1014.6 mb 0.00 in0.0 mm 0.00 in/hr0.0 mm/hr 0.00 in0.0 mm
03:11 AM 73.2°F22.9°C 73.0°F22.8°C 99% Calm Calm -- 29.96 in1014.6 mb 0.00 in0.0 mm 0.00 in/hr0.0 mm/hr 0.00 in0.0 mm
03:10 AM 73.0°F22.8°C 72.8°F22.7°C 99% Calm Calm -- 29.96 in1014.6 mb 0.00 in0.0 mm 0.00 in/hr0.0 mm/hr 0.00 in0.0 mm
03:09 AM 73.2°F22.9°C 73.0°F22.8°C 99% Calm Calm -- 29.96 in1014.6 mb 0.00 in0.0 mm 0.00 in/hr0.0 mm/hr 0.00 in0.0 mm
03:08 AM 73.0°F22.8°C 72.8°F22.7°C 99% Calm Calm -- 29.96 in1014.6 mb 0.00 in0.0 mm 0.00 in/hr0.0 mm/hr 0.00 in0.0 mm
03:07 AM 73.0°F22.8°C 72.8°F22.7°C 99% Calm Calm -- 29.97 in1014.9 mb 0.00 in0.0 mm 0.00 in/hr0.0 mm/hr 0.00 in0.0 mm
03:06 AM 73.2°F22.9°C 73.0°F22.8°C 99% Calm Calm 0.7 mph1.1 kmh 29.96 in1014.6 mb 0.00 in0.0 mm 0.00 in/hr0.0 mm/hr 0.00 in0.0 mm
03:05 AM 73.2°F22.9°C 73.0°F22.8°C 99% Calm Calm 0.7 mph1.1 kmh 29.97 in1014.9 mb 0.00 in0.0 mm 0.00 in/hr0.0 mm/hr 0.00 in0.0 mm
03:04 AM 73.2°F22.9°C 73.0°F22.8°C 99% Calm Calm 1.6 mph2.6 kmh 29.97 in1014.9 mb 0.00 in0.0 mm 0.00 in/hr0.0 mm/hr 0.00 in0.0 mm
03:03 AM 73.2°F22.9°C 73.0°F22.8°C 99% Calm Calm 1.6 mph2.6 kmh 29.96 in1014.6 mb 0.00 in0.0 mm 0.00 in/hr0.0 mm/hr 0.00 in0.0 mm
03:02 AM 73.2°F22.9°C 73.0°F22.8°C 99% Calm Calm 1.6 mph2.6 kmh 29.97 in1014.9 mb 0.00 in0.0 mm 0.00 in/hr0.0 mm/hr 0.00 in0.0 mm
03:01 AM 73.2°F22.9°C 73.0°F22.8°C 99% Calm Calm 1.6 mph2.6 kmh 29.96 in1014.6 mb 0.00 in0.0 mm 0.00 in/hr0.0 mm/hr 0.00 in0.0 mm
03:00 AM 73.2°F22.9°C 73.0°F22.8°C 99% Calm Calm 1.6 mph2.6 kmh 29.96 in1014.6 mb 0.00 in0.0 mm 0.00 in/hr0.0 mm/hr 0.00 in0.0 mm
02:59 AM 73.2°F22.9°C 73.0°F22.8°C 99% Calm Calm 1.6 mph2.6 kmh 29.96 in1014.6 mb 0.00 in0.0 mm 0.00 in/hr0.0 mm/hr 0.00 in0.0 mm
02:58 AM 73.0°F22.8°C 72.8°F22.7°C 99% Calm Calm 1.6 mph2.6 kmh 29.96 in1014.6 mb 0.00 in0.0 mm 0.00 in/hr0.0 mm/hr 0.00 in0.0 mm
02:57 AM 73.2°F22.9°C 73.0°F22.8°C 99% Calm Calm 1.6 mph2.6 kmh 29.96 in1014.6 mb 0.00 in0.0 mm 0.00 in/hr0.0 mm/hr 0.00 in0.0 mm
02:56 AM 73.2°F22.9°C 73.0°F22.8°C 99% Calm Calm 1.6 mph2.6 kmh 29.97 in1014.9 mb 0.00 in0.0 mm 0.00 in/hr0.0 mm/hr 0.00 in0.0 mm
02:55 AM 73.2°F22.9°C 73.0°F22.8°C 99% Calm Calm 1.6 mph2.6 kmh 29.96 in1014.6 mb 0.00 in0.0 mm 0.00 in/hr0.0 mm/hr 0.00 in0.0 mm
02:54 AM 73.2°F22.9°C 73.0°F22.8°C 99% Calm Calm 1.6 mph2.6 kmh 29.96 in1014.6 mb 0.00 in0.0 mm 0.00 in/hr0.0 mm/hr 0.00 in0.0 mm
02:53 AM 73.2°F22.9°C 73.0°F22.8°C 99% Calm Calm -- 29.96 in1014.6 mb 0.00 in0.0 mm 0.00 in/hr0.0 mm/hr 0.00 in0.0 mm
02:52 AM 73.2°F22.9°C 73.0°F22.8°C 99% Calm Calm -- 29.96 in1014.6 mb 0.00 in0.0 mm 0.00 in/hr0.0 mm/hr 0.00 in0.0 mm
02:51 AM 73.2°F22.9°C 73.0°F22.8°C 99% Calm Calm -- 29.96 in1014.6 mb 0.00 in0.0 mm 0.00 in/hr0.0 mm/hr 0.00 in0.0 mm
02:50 AM 73.2°F22.9°C 73.0°F22.8°C 99% Calm Calm -- 29.96 in1014.6 mb 0.00 in0.0 mm 0.00 in/hr0.0 mm/hr 0.00 in0.0 mm
02:49 AM 73.2°F22.9°C 73.0°F22.8°C 99% Calm Calm -- 29.96 in1014.6 mb 0.00 in0.0 mm 0.00 in/hr0.0 mm/hr 0.00 in0.0 mm
02:48 AM 73.2°F22.9°C 73.0°F22.8°C 99% Calm Calm -- 29.96 in1014.6 mb 0.00 in0.0 mm 0.00 in/hr0.0 mm/hr 0.00 in0.0 mm
02:47 AM 73.2°F22.9°C 73.0°F22.8°C 99% Calm Calm -- 29.96 in1014.6 mb 0.00 in0.0 mm 0.00 in/hr0.0 mm/hr 0.00 in0.0 mm
02:46 AM 73.2°F22.9°C 73.0°F22.8°C 99% Calm Calm -- 29.96 in1014.6 mb 0.00 in0.0 mm 0.00 in/hr0.0 mm/hr 0.00 in0.0 mm
02:45 AM 73.2°F22.9°C 73.0°F22.8°C 99% Calm Calm -- 29.96 in1014.6 mb 0.00 in0.0 mm 0.00 in/hr0.0 mm/hr 0.00 in0.0 mm
02:44 AM 73.4°F23.0°C 73.2°F22.9°C 99% Calm Calm -- 29.96 in1014.6 mb 0.00 in0.0 mm 0.00 in/hr0.0 mm/hr 0.00 in0.0 mm
02:43 AM 73.2°F22.9°C 73.0°F22.8°C 99% Calm Calm -- 29.96 in1014.6 mb 0.00 in0.0 mm 0.00 in/hr0.0 mm/hr 0.00 in0.0 mm
02:42 AM 73.4°F23.0°C 73.2°F22.9°C 99% Calm Calm -- 29.96 in1014.6 mb 0.00 in0.0 mm 0.00 in/hr0.0 mm/hr 0.00 in0.0 mm
02:41 AM 73.2°F22.9°C 73.0°F22.8°C 99% Calm Calm -- 29.96 in1014.6 mb 0.00 in0.0 mm 0.00 in/hr0.0 mm/hr 0.00 in0.0 mm
02:40 AM 73.2°F22.9°C 73.0°F22.8°C 99% Calm Calm -- 29.96 in1014.6 mb 0.00 in0.0 mm 0.00 in/hr0.0 mm/hr 0.00 in0.0 mm
02:22 AM 73.4°F23.0°C 73.2°F22.9°C 99% Calm Calm -- 29.97 in1014.9 mb 0.00 in0.0 mm 0.00 in/hr0.0 mm/hr 0.00 in0.0 mm
02:21 AM 73.4°F23.0°C 73.2°F22.9°C 99% Calm Calm -- 29.97 in1014.9 mb 0.00 in0.0 mm 0.00 in/hr0.0 mm/hr 0.00 in0.0 mm
02:20 AM 73.4°F23.0°C 73.2°F22.9°C 99% Calm Calm -- 29.97 in1014.9 mb 0.00 in0.0 mm 0.00 in/hr0.0 mm/hr 0.00 in0.0 mm
02:19 AM 73.4°F23.0°C 73.2°F22.9°C 99% Calm Calm -- 29.97 in1014.9 mb 0.00 in0.0 mm 0.00 in/hr0.0 mm/hr 0.00 in0.0 mm
02:18 AM 73.6°F23.1°C 73.3°F22.9°C 99% Calm Calm -- 29.98 in1015.2 mb 0.00 in0.0 mm 0.00 in/hr0.0 mm/hr 0.00 in0.0 mm
02:17 AM 73.6°F23.1°C 73.3°F22.9°C 99% Calm Calm 0.7 mph1.1 kmh 29.98 in1015.2 mb 0.00 in0.0 mm 0.00 in/hr0.0 mm/hr 0.00 in0.0 mm
02:16 AM 73.6°F23.1°C 73.3°F22.9°C 99% Calm Calm 0.7 mph1.1 kmh 29.97 in1014.9 mb 0.00 in0.0 mm 0.00 in/hr0.0 mm/hr 0.00 in0.0 mm
02:15 AM 73.6°F23.1°C 73.3°F22.9°C 99% Calm Calm 0.7 mph1.1 kmh 29.97 in1014.9 mb 0.00 in0.0 mm 0.00 in/hr0.0 mm/hr 0.00 in0.0 mm
01:58 AM 73.8°F23.2°C 73.5°F23.1°C 99% Calm Calm -- 29.98 in1015.2 mb 0.00 in0.0 mm 0.00 in/hr0.0 mm/hr 0.00 in0.0 mm
01:57 AM 73.8°F23.2°C 73.5°F23.1°C 99% Calm Calm -- 29.98 in1015.2 mb 0.00 in0.0 mm 0.00 in/hr0.0 mm/hr 0.00 in0.0 mm
01:56 AM 73.9°F23.3°C 73.7°F23.2°C 99% Calm Calm -- 29.98 in1015.2 mb 0.00 in0.0 mm 0.00 in/hr0.0 mm/hr 0.00 in0.0 mm
01:55 AM 73.8°F23.2°C 73.5°F23.1°C 99% Calm Calm -- 29.98 in1015.2 mb 0.00 in0.0 mm 0.00 in/hr0.0 mm/hr 0.00 in0.0 mm
01:54 AM 73.9°F23.3°C 73.7°F23.2°C 99% Calm Calm -- 29.98 in1015.2 mb 0.00 in0.0 mm 0.00 in/hr0.0 mm/hr 0.00 in0.0 mm
01:53 AM 73.9°F23.3°C 73.7°F23.2°C 99% Calm Calm -- 29.98 in1015.2 mb 0.00 in0.0 mm 0.00 in/hr0.0 mm/hr 0.00 in0.0 mm
01:52 AM 73.9°F23.3°C 73.7°F23.2°C 99% Calm Calm -- 29.98 in1015.2 mb 0.00 in0.0 mm 0.00 in/hr0.0 mm/hr 0.00 in0.0 mm
01:51 AM 73.9°F23.3°C 73.7°F23.2°C 99% Calm Calm -- 29.98 in1015.2 mb 0.00 in0.0 mm 0.00 in/hr0.0 mm/hr 0.00 in0.0 mm
01:50 AM 73.9°F23.3°C 73.7°F23.2°C 99% Calm Calm -- 29.98 in1015.2 mb 0.00 in0.0 mm 0.00 in/hr0.0 mm/hr 0.00 in0.0 mm
01:49 AM 74.1°F23.4°C 73.9°F23.3°C 99% Calm Calm -- 29.98 in1015.2 mb 0.00 in0.0 mm 0.00 in/hr0.0 mm/hr 0.00 in0.0 mm
01:48 AM 74.1°F23.4°C 73.9°F23.3°C 99% Calm Calm -- 29.98 in1015.2 mb 0.00 in0.0 mm 0.00 in/hr0.0 mm/hr 0.00 in0.0 mm
01:47 AM 73.9°F23.3°C 73.7°F23.2°C 99% Calm Calm -- 29.97 in1014.9 mb 0.00 in0.0 mm 0.00 in/hr0.0 mm/hr 0.00 in0.0 mm
01:46 AM 73.9°F23.3°C 73.7°F23.2°C 99% Calm Calm -- 29.98 in1015.2 mb 0.00 in0.0 mm 0.00 in/hr0.0 mm/hr 0.00 in0.0 mm
01:45 AM 74.1°F23.4°C 73.9°F23.3°C 99% Calm Calm -- 29.98 in1015.2 mb 0.00 in0.0 mm 0.00 in/hr0.0 mm/hr 0.00 in0.0 mm
01:44 AM 74.1°F23.4°C 73.9°F23.3°C 99% Calm Calm -- 29.98 in1015.2 mb 0.00 in0.0 mm 0.00 in/hr0.0 mm/hr 0.00 in0.0 mm
01:43 AM 74.1°F23.4°C 73.9°F23.3°C 99% Calm Calm -- 29.98 in1015.2 mb 0.00 in0.0 mm 0.00 in/hr0.0 mm/hr 0.00 in0.0 mm
01:42 AM 74.1°F23.4°C 73.9°F23.3°C 99% Calm Calm -- 29.98 in1015.2 mb 0.00 in0.0 mm 0.00 in/hr0.0 mm/hr 0.00 in0.0 mm
01:41 AM 74.1°F23.4°C 73.9°F23.3°C 99% Calm Calm -- 29.98 in1015.2 mb 0.00 in0.0 mm 0.00 in/hr0.0 mm/hr 0.00 in0.0 mm
01:40 AM 74.1°F23.4°C 73.9°F23.3°C 99% Calm Calm -- 29.98 in1015.2 mb 0.00 in0.0 mm 0.00 in/hr0.0 mm/hr 0.00 in0.0 mm
01:39 AM 74.1°F23.4°C 73.9°F23.3°C 99% Calm Calm -- 29.98 in1015.2 mb 0.00 in0.0 mm 0.00 in/hr0.0 mm/hr 0.00 in0.0 mm
01:38 AM 74.1°F23.4°C 73.9°F23.3°C 99% Calm Calm -- 29.97 in1014.9 mb 0.00 in0.0 mm 0.00 in/hr0.0 mm/hr 0.00 in0.0 mm
01:37 AM 74.1°F23.4°C 73.9°F23.3°C 99% Calm Calm -- 29.97 in1014.9 mb 0.00 in0.0 mm 0.00 in/hr0.0 mm/hr 0.00 in0.0 mm
01:36 AM 74.1°F23.4°C 73.9°F23.3°C 99% Calm Calm -- 29.97 in1014.9 mb 0.00 in0.0 mm 0.00 in/hr0.0 mm/hr 0.00 in0.0 mm
01:35 AM 74.1°F23.4°C 73.9°F23.3°C 99% Calm Calm -- 29.98 in1015.2 mb 0.00 in0.0 mm 0.00 in/hr0.0 mm/hr 0.00 in0.0 mm
01:34 AM 74.1°F23.4°C 73.9°F23.3°C 99% Calm Calm -- 29.98 in1015.2 mb 0.00 in0.0 mm 0.00 in/hr0.0 mm/hr 0.00 in0.0 mm
01:33 AM 74.1°F23.4°C 73.9°F23.3°C 99% Calm Calm -- 29.98 in1015.2 mb 0.00 in0.0 mm 0.00 in/hr0.0 mm/hr 0.00 in0.0 mm
01:32 AM 74.3°F23.5°C 74.1°F23.4°C 99% Calm Calm -- 29.98 in1015.2 mb 0.00 in0.0 mm 0.00 in/hr0.0 mm/hr 0.00 in0.0 mm
01:31 AM 74.1°F23.4°C 73.9°F23.3°C 99% Calm Calm -- 29.98 in1015.2 mb 0.00 in0.0 mm 0.00 in/hr0.0 mm/hr 0.00 in0.0 mm
01:30 AM 74.1°F23.4°C 73.9°F23.3°C 99% Calm Calm -- 29.98 in1015.2 mb 0.00 in0.0 mm 0.00 in/hr0.0 mm/hr 0.00 in0.0 mm
01:29 AM 74.3°F23.5°C 74.1°F23.4°C 99% Calm Calm -- 29.98 in1015.2 mb 0.00 in0.0 mm 0.00 in/hr0.0 mm/hr 0.00 in0.0 mm
01:28 AM 74.1°F23.4°C 73.9°F23.3°C 99% Calm Calm -- 29.98 in1015.2 mb 0.00 in0.0 mm 0.00 in/hr0.0 mm/hr 0.00 in0.0 mm
01:27 AM 74.3°F23.5°C 74.1°F23.4°C 99% Calm Calm -- 29.98 in1015.2 mb 0.00 in0.0 mm 0.00 in/hr0.0 mm/hr 0.00 in0.0 mm
01:26 AM 74.3°F23.5°C 74.1°F23.4°C 99% Calm Calm -- 29.98 in1015.2 mb 0.00 in0.0 mm 0.00 in/hr0.0 mm/hr 0.00 in0.0 mm
01:25 AM 74.3°F23.5°C 74.1°F23.4°C 99% Calm Calm -- 29.98 in1015.2 mb 0.00 in0.0 mm 0.00 in/hr0.0 mm/hr 0.00 in0.0 mm
01:24 AM 74.3°F23.5°C 74.1°F23.4°C 99% Calm Calm -- 29.98 in1015.2 mb 0.00 in0.0 mm 0.00 in/hr0.0 mm/hr 0.00 in0.0 mm
01:23 AM 74.3°F23.5°C 74.1°F23.4°C 99% Calm Calm -- 29.97 in1014.9 mb 0.00 in0.0 mm 0.00 in/hr0.0 mm/hr 0.00 in0.0 mm
01:22 AM 74.3°F23.5°C 74.1°F23.4°C 99% Calm Calm -- 29.98 in1015.2 mb 0.00 in0.0 mm 0.00 in/hr0.0 mm/hr 0.00 in0.0 mm
01:21 AM 74.3°F23.5°C 74.1°F23.4°C 99% Calm Calm -- 29.98 in1015.2 mb 0.00 in0.0 mm 0.00 in/hr0.0 mm/hr 0.00 in0.0 mm
01:20 AM 74.3°F23.5°C 74.1°F23.4°C 99% Calm Calm -- 29.98 in1015.2 mb 0.00 in0.0 mm 0.00 in/hr0.0 mm/hr 0.00 in0.0 mm
01:19 AM 74.3°F23.5°C 74.1°F23.4°C 99% Calm Calm -- 29.98 in1015.2 mb 0.00 in0.0 mm 0.00 in/hr0.0 mm/hr 0.00 in0.0 mm
01:18 AM 74.3°F23.5°C 74.1°F23.4°C 99% Calm Calm -- 29.98 in1015.2 mb 0.00 in0.0 mm 0.00 in/hr0.0 mm/hr 0.00 in0.0 mm
01:17 AM 74.5°F23.6°C 74.2°F23.4°C 99% Calm Calm -- 29.98 in1015.2 mb 0.00 in0.0 mm 0.00 in/hr0.0 mm/hr 0.00 in0.0 mm
01:16 AM 74.5°F23.6°C 74.2°F23.4°C 99% Calm Calm -- 29.98 in1015.2 mb 0.00 in0.0 mm 0.00 in/hr0.0 mm/hr 0.00 in0.0 mm
01:15 AM 74.5°F23.6°C 74.2°F23.4°C 99% Calm Calm -- 29.98 in1015.2 mb 0.00 in0.0 mm 0.00 in/hr0.0 mm/hr 0.00 in0.0 mm
01:14 AM 74.5°F23.6°C 74.2°F23.4°C 99% Calm Calm -- 29.98 in1015.2 mb 0.00 in0.0 mm 0.00 in/hr0.0 mm/hr 0.00 in0.0 mm
01:13 AM 74.5°F23.6°C 74.2°F23.4°C 99% Calm Calm -- 29.98 in1015.2 mb 0.00 in0.0 mm 0.00 in/hr0.0 mm/hr 0.00 in0.0 mm
01:12 AM 74.5°F23.6°C 74.2°F23.4°C 99% Calm Calm -- 29.98 in1015.2 mb 0.00 in0.0 mm 0.00 in/hr0.0 mm/hr 0.00 in0.0 mm
01:11 AM 74.5°F23.6°C 74.2°F23.4°C 99% Calm Calm -- 29.98 in1015.2 mb 0.00 in0.0 mm 0.00 in/hr0.0 mm/hr 0.00 in0.0 mm
01:10 AM 74.7°F23.7°C 74.4°F23.6°C 99% Calm Calm -- 29.98 in1015.2 mb 0.00 in0.0 mm 0.00 in/hr0.0 mm/hr 0.00 in0.0 mm
01:09 AM 74.7°F23.7°C 74.4°F23.6°C 99% Calm Calm -- 29.98 in1015.2 mb 0.00 in0.0 mm 0.00 in/hr0.0 mm/hr 0.00 in0.0 mm
01:08 AM 74.7°F23.7°C 74.4°F23.6°C 99% Calm Calm -- 29.98 in1015.2 mb 0.00 in0.0 mm 0.00 in/hr0.0 mm/hr 0.00 in0.0 mm
01:07 AM 74.7°F23.7°C 74.4°F23.6°C 99% Calm Calm -- 29.98 in1015.2 mb 0.00 in0.0 mm 0.00 in/hr0.0 mm/hr 0.00 in0.0 mm
01:06 AM 74.7°F23.7°C 74.4°F23.6°C 99% Calm Calm -- 29.98 in1015.2 mb 0.00 in0.0 mm 0.00 in/hr0.0 mm/hr 0.00 in0.0 mm
01:05 AM 74.7°F23.7°C 74.4°F23.6°C 99% Calm Calm -- 29.98 in1015.2 mb 0.00 in0.0 mm 0.00 in/hr0.0 mm/hr 0.00 in0.0 mm
01:04 AM 74.7°F23.7°C 74.4°F23.6°C 99% Calm Calm -- 29.99 in1015.6 mb 0.00 in0.0 mm 0.00 in/hr0.0 mm/hr 0.00 in0.0 mm
01:03 AM 74.7°F23.7°C 74.4°F23.6°C 99% Calm Calm -- 29.98 in1015.2 mb 0.00 in0.0 mm 0.00 in/hr0.0 mm/hr 0.00 in0.0 mm
01:02 AM 74.7°F23.7°C 74.4°F23.6°C 99% Calm Calm -- 29.98 in1015.2 mb 0.00 in0.0 mm 0.00 in/hr0.0 mm/hr 0.00 in0.0 mm
01:01 AM 74.7°F23.7°C 74.4°F23.6°C 99% Calm Calm -- 29.98 in1015.2 mb 0.00 in0.0 mm 0.00 in/hr0.0 mm/hr 0.00 in0.0 mm
01:00 AM 74.7°F23.7°C 74.4°F23.6°C 99% Calm Calm -- 29.98 in1015.2 mb 0.00 in0.0 mm 0.00 in/hr0.0 mm/hr 0.00 in0.0 mm
12:59 AM 74.7°F23.7°C 74.4°F23.6°C 99% Calm Calm -- 29.98 in1015.2 mb 0.00 in0.0 mm 0.00 in/hr0.0 mm/hr 0.00 in0.0 mm
12:58 AM 74.7°F23.7°C 74.4°F23.6°C 99% Calm Calm -- 29.98 in1015.2 mb 0.00 in0.0 mm 0.00 in/hr0.0 mm/hr 0.00 in0.0 mm
12:57 AM 74.8°F23.8°C 74.6°F23.7°C 99% Calm Calm -- 29.98 in1015.2 mb 0.00 in0.0 mm 0.00 in/hr0.0 mm/hr 0.00 in0.0 mm
12:56 AM 74.8°F23.8°C 74.6°F23.7°C 99% Calm Calm -- 29.99 in1015.6 mb 0.00 in0.0 mm 0.00 in/hr0.0 mm/hr 0.00 in0.0 mm
12:55 AM 74.8°F23.8°C 74.6°F23.7°C 99% Calm Calm -- 29.99 in1015.6 mb 0.00 in0.0 mm 0.00 in/hr0.0 mm/hr 0.00 in0.0 mm
12:54 AM 74.8°F23.8°C 74.6°F23.7°C 99% Calm Calm -- 29.98 in1015.2 mb 0.00 in0.0 mm 0.00 in/hr0.0 mm/hr 0.00 in0.0 mm
12:53 AM 74.8°F23.8°C 74.6°F23.7°C 99% Calm Calm -- 29.98 in1015.2 mb 0.00 in0.0 mm 0.00 in/hr0.0 mm/hr 0.00 in0.0 mm
12:52 AM 74.8°F23.8°C 74.6°F23.7°C 99% Calm Calm -- 29.98 in1015.2 mb 0.00 in0.0 mm 0.00 in/hr0.0 mm/hr 0.00 in0.0 mm
12:51 AM 74.8°F23.8°C 74.6°F23.7°C 99% Calm Calm -- 29.99 in1015.6 mb 0.00 in0.0 mm 0.00 in/hr0.0 mm/hr 0.00 in0.0 mm
12:50 AM 75.0°F23.9°C 74.8°F23.8°C 99% Calm Calm -- 29.99 in1015.6 mb 0.00 in0.0 mm 0.00 in/hr0.0 mm/hr 0.00 in0.0 mm
12:49 AM 75.0°F23.9°C 74.8°F23.8°C 99% Calm Calm -- 29.98 in1015.2 mb 0.00 in0.0 mm 0.00 in/hr0.0 mm/hr 0.00 in0.0 mm
12:48 AM 75.0°F23.9°C 74.8°F23.8°C 99% Calm Calm -- 29.98 in1015.2 mb 0.00 in0.0 mm 0.00 in/hr0.0 mm/hr 0.00 in0.0 mm
12:47 AM 75.0°F23.9°C 74.8°F23.8°C 99% Calm Calm -- 29.99 in1015.6 mb 0.00 in0.0 mm 0.00 in/hr0.0 mm/hr 0.00 in0.0 mm
12:46 AM 75.0°F23.9°C 74.8°F23.8°C 99% Calm Calm -- 29.98 in1015.2 mb 0.00 in0.0 mm 0.00 in/hr0.0 mm/hr 0.00 in0.0 mm
12:45 AM 75.0°F23.9°C 74.8°F23.8°C 99% Calm Calm -- 29.99 in1015.6 mb 0.00 in0.0 mm 0.00 in/hr0.0 mm/hr 0.00 in0.0 mm
12:44 AM 75.2°F24.0°C 75.0°F23.9°C 99% Calm Calm -- 29.99 in1015.6 mb 0.00 in0.0 mm 0.00 in/hr0.0 mm/hr 0.00 in0.0 mm
12:43 AM 75.2°F24.0°C 75.0°F23.9°C 99% Calm Calm -- 29.99 in1015.6 mb 0.00 in0.0 mm 0.00 in/hr0.0 mm/hr 0.00 in0.0 mm
12:42 AM 75.2°F24.0°C 75.0°F23.9°C 99% Calm Calm -- 29.99 in1015.6 mb 0.00 in0.0 mm 0.00 in/hr0.0 mm/hr 0.00 in0.0 mm
12:41 AM 75.2°F24.0°C 75.0°F23.9°C 99% Calm Calm -- 29.98 in1015.2 mb 0.00 in0.0 mm 0.00 in/hr0.0 mm/hr 0.00 in0.0 mm
12:40 AM 75.2°F24.0°C 75.0°F23.9°C 99% Calm Calm -- 29.99 in1015.6 mb 0.00 in0.0 mm 0.00 in/hr0.0 mm/hr 0.00 in0.0 mm
12:39 AM 75.2°F24.0°C 75.0°F23.9°C 99% Calm Calm -- 29.98 in1015.2 mb 0.00 in0.0 mm 0.00 in/hr0.0 mm/hr 0.00 in0.0 mm
12:38 AM 75.4°F24.1°C 75.1°F23.9°C 99% Calm Calm -- 29.99 in1015.6 mb 0.00 in0.0 mm 0.00 in/hr0.0 mm/hr 0.00 in0.0 mm
12:37 AM 75.4°F24.1°C 75.1°F23.9°C 99% Calm Calm -- 29.99 in1015.6 mb 0.00 in0.0 mm 0.00 in/hr0.0 mm/hr 0.00 in0.0 mm
12:36 AM 75.4°F24.1°C 75.1°F23.9°C 99% Calm Calm -- 29.99 in1015.6 mb 0.00 in0.0 mm 0.00 in/hr0.0 mm/hr 0.00 in0.0 mm
12:35 AM 75.4°F24.1°C 75.1°F23.9°C 99% Calm Calm 0.7 mph1.1 kmh 29.99 in1015.6 mb 0.00 in0.0 mm 0.00 in/hr0.0 mm/hr 0.00 in0.0 mm
12:34 AM 75.4°F24.1°C 75.1°F23.9°C 99% Calm Calm 0.7 mph1.1 kmh 29.99 in1015.6 mb 0.00 in0.0 mm 0.00 in/hr0.0 mm/hr 0.00 in0.0 mm
12:33 AM 75.4°F24.1°C 75.1°F23.9°C 99% Calm Calm 0.7 mph1.1 kmh 29.99 in1015.6 mb 0.00 in0.0 mm 0.00 in/hr0.0 mm/hr 0.00 in0.0 mm
12:32 AM 75.4°F24.1°C 75.1°F23.9°C 99% Calm Calm 0.7 mph1.1 kmh 29.99 in1015.6 mb 0.00 in0.0 mm 0.00 in/hr0.0 mm/hr 0.00 in0.0 mm
12:31 AM 75.4°F24.1°C 75.1°F23.9°C 99% Calm Calm 0.7 mph1.1 kmh 29.98 in1015.2 mb 0.00 in0.0 mm 0.00 in/hr0.0 mm/hr 0.00 in0.0 mm
12:30 AM 75.2°F24.0°C 75.0°F23.9°C 99% Calm Calm 0.7 mph1.1 kmh 29.99 in1015.6 mb 0.00 in0.0 mm 0.00 in/hr0.0 mm/hr 0.00 in0.0 mm
12:29 AM 75.2°F24.0°C 75.0°F23.9°C 99% Calm Calm 0.7 mph1.1 kmh 29.99 in1015.6 mb 0.00 in0.0 mm 0.00 in/hr0.0 mm/hr 0.00 in0.0 mm
12:28 AM 75.2°F24.0°C 75.0°F23.9°C 99% Calm Calm 0.7 mph1.1 kmh 29.99 in1015.6 mb 0.00 in0.0 mm 0.00 in/hr0.0 mm/hr 0.00 in0.0 mm
12:27 AM 75.0°F23.9°C 74.8°F23.8°C 99% Calm Calm 0.7 mph1.1 kmh 29.99 in1015.6 mb 0.00 in0.0 mm 0.00 in/hr0.0 mm/hr 0.00 in0.0 mm
12:26 AM 75.0°F23.9°C 74.8°F23.8°C 99% Calm Calm 1.6 mph2.6 kmh 29.99 in1015.6 mb 0.00 in0.0 mm 0.00 in/hr0.0 mm/hr 0.00 in0.0 mm
12:25 AM 75.0°F23.9°C 74.8°F23.8°C 99% Calm Calm 1.6 mph2.6 kmh 29.99 in1015.6 mb 0.00 in0.0 mm 0.00 in/hr0.0 mm/hr 0.00 in0.0 mm
12:24 AM 75.0°F23.9°C 74.8°F23.8°C 99% Calm Calm 1.6 mph2.6 kmh 29.98 in1015.2 mb 0.00 in0.0 mm 0.00 in/hr0.0 mm/hr 0.00 in0.0 mm
12:23 AM 75.0°F23.9°C 74.8°F23.8°C 99% Calm Calm 1.6 mph2.6 kmh 29.99 in1015.6 mb 0.00 in0.0 mm 0.00 in/hr0.0 mm/hr 0.00 in0.0 mm
12:22 AM 75.0°F23.9°C 74.8°F23.8°C 99% Calm Calm 1.6 mph2.6 kmh 29.99 in1015.6 mb 0.00 in0.0 mm 0.00 in/hr0.0 mm/hr 0.00 in0.0 mm
12:21 AM 75.0°F23.9°C 74.8°F23.8°C 99% Calm Calm 1.6 mph2.6 kmh 29.99 in1015.6 mb 0.00 in0.0 mm 0.00 in/hr0.0 mm/hr 0.00 in0.0 mm
12:20 AM 75.0°F23.9°C 74.8°F23.8°C 99% Calm Calm 1.6 mph2.6 kmh 29.98 in1015.2 mb 0.00 in0.0 mm 0.00 in/hr0.0 mm/hr 0.00 in0.0 mm
12:19 AM 75.0°F23.9°C 74.8°F23.8°C 99% Calm Calm 1.6 mph2.6 kmh 29.99 in1015.6 mb 0.00 in0.0 mm 0.00 in/hr0.0 mm/hr 0.00 in0.0 mm
12:18 AM 75.0°F23.9°C 74.8°F23.8°C 99% Calm Calm 1.6 mph2.6 kmh 29.99 in1015.6 mb 0.00 in0.0 mm 0.00 in/hr0.0 mm/hr 0.00 in0.0 mm
12:17 AM 74.8°F23.8°C 74.6°F23.7°C 99% Calm Calm 1.6 mph2.6 kmh 29.98 in1015.2 mb 0.00 in0.0 mm 0.00 in/hr0.0 mm/hr 0.00 in0.0 mm
12:16 AM 75.0°F23.9°C 74.8°F23.8°C 99% Calm Calm -- 29.99 in1015.6 mb 0.00 in0.0 mm 0.00 in/hr0.0 mm/hr 0.00 in0.0 mm
12:15 AM 75.0°F23.9°C 74.8°F23.8°C 99% Calm Calm -- 29.98 in1015.2 mb 0.00 in0.0 mm 0.00 in/hr0.0 mm/hr 0.00 in0.0 mm
12:14 AM 75.0°F23.9°C 74.8°F23.8°C 99% Calm Calm -- 29.98 in1015.2 mb 0.00 in0.0 mm 0.00 in/hr0.0 mm/hr 0.00 in0.0 mm
12:13 AM 75.2°F24.0°C 75.0°F23.9°C 99% Calm Calm -- 29.99 in1015.6 mb 0.00 in0.0 mm 0.00 in/hr0.0 mm/hr 0.00 in0.0 mm
12:12 AM 75.0°F23.9°C 74.8°F23.8°C 99% Calm Calm -- 29.99 in1015.6 mb 0.00 in0.0 mm 0.00 in/hr0.0 mm/hr 0.00 in0.0 mm
12:11 AM 75.2°F24.0°C 75.0°F23.9°C 99% Calm Calm -- 29.98 in1015.2 mb 0.00 in0.0 mm 0.00 in/hr0.0 mm/hr 0.00 in0.0 mm
12:10 AM 75.2°F24.0°C 75.0°F23.9°C 99% Calm Calm -- 29.99 in1015.6 mb 0.00 in0.0 mm 0.00 in/hr0.0 mm/hr 0.00 in0.0 mm
12:09 AM 75.2°F24.0°C 75.0°F23.9°C 99% Calm Calm -- 29.99 in1015.6 mb 0.00 in0.0 mm 0.00 in/hr0.0 mm/hr 0.00 in0.0 mm
12:08 AM 75.2°F24.0°C 75.0°F23.9°C 99% Calm Calm -- 29.98 in1015.2 mb 0.00 in0.0 mm 0.00 in/hr0.0 mm/hr 0.00 in0.0 mm
12:07 AM 75.2°F24.0°C 75.0°F23.9°C 99% Calm Calm -- 29.98 in1015.2 mb 0.00 in0.0 mm 0.00 in/hr0.0 mm/hr 0.00 in0.0 mm
12:06 AM 75.4°F24.1°C 75.1°F23.9°C 99% Calm Calm -- 29.98 in1015.2 mb 0.00 in0.0 mm 0.00 in/hr0.0 mm/hr 0.00 in0.0 mm
12:05 AM 75.4°F24.1°C 75.1°F23.9°C 99% Calm Calm -- 29.98 in1015.2 mb 0.00 in0.0 mm 0.00 in/hr0.0 mm/hr 0.00 in0.0 mm
12:04 AM 75.4°F24.1°C 75.1°F23.9°C 99% Calm Calm -- 29.98 in1015.2 mb 0.00 in0.0 mm 0.00 in/hr0.0 mm/hr 0.00 in0.0 mm
12:03 AM 75.4°F24.1°C 75.1°F23.9°C 99% Calm Calm -- 29.99 in1015.6 mb 0.00 in0.0 mm 0.00 in/hr0.0 mm/hr 0.00 in0.0 mm
12:02 AM 75.4°F24.1°C 75.1°F23.9°C 99% Calm Calm -- 29.99 in1015.6 mb 0.00 in0.0 mm 0.00 in/hr0.0 mm/hr 0.00 in0.0 mm
12:01 AM 75.4°F24.1°C 75.1°F23.9°C 99% Calm Calm -- 29.99 in1015.6 mb 0.00 in0.0 mm 0.00 in/hr0.0 mm/hr 0.00 in0.0 mm
12:00 AM 75.4°F24.1°C 75.1°F23.9°C 99% Calm Calm -- 29.98 in1015.2 mb 0.00 in0.0 mm 0.00 in/hr0.0 mm/hr 0.00 in0.0 mm